Observation data for Mertzon on 11/17/2019      Previous  Date       Current Mesonet Observations  Soil Data  Daily Summary Page  Observations in Plain Language
KME1 170600Z 19010KT 10/04 A30 RMK A01 T00950035  RH  066%=      5-min Rain = 0
KME1 170601Z 20009KT 09/04 A30 RMK A01 T00940035  RH  066%=      5-min Rain = 0
KME1 170602Z 20011KT 09/04 A3001 RMK A01 T00940035  RH  067%=      5-min Rain = 0
KME1 170603Z 19008KT 09/04 A3001 RMK A01 T00930035  RH  067%=      5-min Rain = 0
KME1 170604Z 20009KT 09/04 A3001 RMK A01 T00930035  RH  067%=      5-min Rain = 0
KME1 170605Z 19010KT 09/04 A3001 RMK A01 T00920035  RH  067%=      5-min Rain = 0
KME1 170606Z 19010KT 09/04 A3001 RMK A01 T00920035  RH  067%=      5-min Rain = 0
KME1 170607Z 19009G14KT 09/04 A3001 RMK A01 T00920035  RH  067%=      5-min Rain = 0
KME1 170608Z 19011KT 09/04 A3001 RMK A01 T00910035  RH  068%=      5-min Rain = 0
KME1 170609Z 19010KT 09/04 A3001 RMK A01 T00910035  RH  068%=      5-min Rain = 0
KME1 170610Z 19010KT 09/03 A30 RMK A01 T00910034  RH  068%=      5-min Rain = 0
KME1 170611Z 19008KT 09/04 A30 RMK A01 T00910035  RH  068%=      5-min Rain = 0
KME1 170612Z 20009KT 09/04 A30 RMK A01 T00910035  RH  068%=      5-min Rain = 0
KME1 170613Z 19009KT 09/04 A30 RMK A01 T00900035  RH  068%=      5-min Rain = 0
KME1 170614Z 19008KT 09/04 A30 RMK A01 T00900035  RH  068%=      5-min Rain = 0
KME1 170615Z 19010KT 09/04 A30 RMK A01 T00900035  RH  068%=      5-min Rain = 0
KME1 170616Z 19008KT 09/04 A30 RMK A01 T00900035  RH  068%=      5-min Rain = 0
KME1 170617Z 20009KT 09/04 A30 RMK A01 T00900035  RH  068%=      5-min Rain = 0
KME1 170618Z 19008KT 09/04 A30 RMK A01 T00900035  RH  068%=      5-min Rain = 0
KME1 170619Z 20008G14KT 09/04 A30 RMK A01 T00890035  RH  069%=      5-min Rain = 0
KME1 170620Z 19010KT 09/03 A30 RMK A01 T00890034  RH  069%=      5-min Rain = 0
KME1 170621Z 19009KT 09/04 A30 RMK A01 T00880035  RH  069%=      5-min Rain = 0
KME1 170622Z 19009KT 09/04 A30 RMK A01 T00890035  RH  069%=      5-min Rain = 0
KME1 170623Z 19011KT 09/04 A30 RMK A01 T00880035  RH  069%=      5-min Rain = 0
KME1 170624Z 19010KT 09/04 A30 RMK A01 T00880035  RH  069%=      5-min Rain = 0
KME1 170625Z 19008KT 09/03 A30 RMK A01 T00880034  RH  069%=      5-min Rain = 0
KME1 170626Z 20010KT 09/04 A30 RMK A01 T00880035  RH  069%=      5-min Rain = 0
KME1 170627Z 20010G15KT 09/03 A30 RMK A01 T00870034  RH  069%=      5-min Rain = 0
KME1 170628Z 19010KT 09/04 A30 RMK A01 T00880035  RH  069%=      5-min Rain = 0
KME1 170629Z 19010KT 09/03 A30 RMK A01 T00880034  RH  069%=      5-min Rain = 0
KME1 170630Z 20011G16KT 09/03 A30 RMK A01 T00870034  RH  069%=      5-min Rain = 0
KME1 170631Z 19010G15KT 09/03 A30 RMK A01 T00870034  RH  070%=      5-min Rain = 0
KME1 170632Z 20010KT 09/03 A30 RMK A01 T00870034  RH  070%=      5-min Rain = 0
KME1 170633Z 20011KT 09/04 A3001 RMK A01 T00870035  RH  070%=      5-min Rain = 0
KME1 170634Z 20010KT 09/03 A3001 RMK A01 T00870034  RH  070%=      5-min Rain = 0
KME1 170635Z 20011KT 09/04 A30 RMK A01 T00870035  RH  070%=      5-min Rain = 0
KME1 170636Z 20009G14KT 09/04 A30 RMK A01 T00870035  RH  070%=      5-min Rain = 0
KME1 170637Z 20009KT 09/04 A30 RMK A01 T00870035  RH  070%=      5-min Rain = 0
KME1 170638Z 20010KT 09/03 A30 RMK A01 T00870034  RH  070%=      5-min Rain = 0
KME1 170639Z 19011KT 09/04 A30 RMK A01 T00870035  RH  070%=      5-min Rain = 0
KME1 170640Z 20011KT 09/04 A30 RMK A01 T00870035  RH  070%=      5-min Rain = 0
KME1 170641Z 20012KT 09/04 A30 RMK A01 T00870035  RH  070%=      5-min Rain = 0
KME1 170642Z 20013KT 09/03 A30 RMK A01 T00870034  RH  070%=      5-min Rain = 0
KME1 170643Z 20013KT 09/03 A30 RMK A01 T00870034  RH  069%=      5-min Rain = 0
KME1 170644Z 20011KT 09/04 A30 RMK A01 T00880035  RH  069%=      5-min Rain = 0
KME1 170645Z 20009KT 09/03 A3001 RMK A01 T00870034  RH  069%=      5-min Rain = 0
KME1 170646Z 20011KT 09/03 A3001 RMK A01 T00880034  RH  069%=      5-min Rain = 0
KME1 170647Z 21012KT 09/03 A3001 RMK A01 T00880034  RH  069%=      5-min Rain = 0
KME1 170648Z 20009KT 09/04 A3001 RMK A01 T00880035  RH  069%=      5-min Rain = 0
KME1 170649Z 20010KT 09/04 A3001 RMK A01 T00880035  RH  069%=      5-min Rain = 0
KME1 170650Z 20011KT 09/03 A3001 RMK A01 T00870034  RH  069%=      5-min Rain = 0
KME1 170651Z 20010KT 09/03 A3001 RMK A01 T00870034  RH  070%=      5-min Rain = 0
KME1 170652Z 20015G20KT 09/04 A3001 RMK A01 T00870035  RH  070%=      5-min Rain = 0
KME1 170653Z 20012KT 09/03 A3001 RMK A01 T00870034  RH  070%=      5-min Rain = 0
KME1 170654Z 20013G18KT 09/03 A30 RMK A01 T00880034  RH  069%=      5-min Rain = 0
KME1 170655Z 20011KT 09/03 A30 RMK A01 T00870034  RH  069%=      5-min Rain = 0
KME1 170656Z 20012KT 09/03 A30 RMK A01 T00870034  RH  069%=      5-min Rain = 0
KME1 170657Z 20012KT 09/04 A30 RMK A01 T00880035  RH  069%=      5-min Rain = 0
KME1 170658Z 20009G14KT 09/04 A30 RMK A01 T00880035  RH  069%=      5-min Rain = 0
KME1 170659Z 20011KT 09/03 A30 RMK A01 T00870034  RH  069%=      5-min Rain = 0
KME1 170700Z 20013KT 09/03 A30 RMK A01 T00870034  RH  069%=      5-min Rain = 0
KME1 170701Z 20013KT 09/03 A30 RMK A01 T00870034  RH  069%=      5-min Rain = 0
KME1 170702Z 20011KT 09/03 A30 RMK A01 T00870034  RH  069%=      5-min Rain = 0
KME1 170703Z 20010KT 09/03 A3001 RMK A01 T00870034  RH  069%=      5-min Rain = 0
KME1 170704Z 21014KT 09/03 A30 RMK A01 T00870034  RH  069%=      5-min Rain = 0
KME1 170705Z 20010KT 09/03 A3001 RMK A01 T00870034  RH  069%=      5-min Rain = 0
KME1 170706Z 20013KT 09/03 A3001 RMK A01 T00870034  RH  069%=      5-min Rain = 0
KME1 170707Z 20010KT 09/03 A3001 RMK A01 T00870034  RH  069%=      5-min Rain = 0
KME1 170708Z 20009KT 09/03 A3001 RMK A01 T00870034  RH  069%=      5-min Rain = 0
KME1 170709Z 20010KT 09/03 A30 RMK A01 T00860034  RH  070%=      5-min Rain = 0
KME1 170710Z 20010G15KT 09/03 A30 RMK A01 T00860034  RH  070%=      5-min Rain = 0
KME1 170711Z 20012KT 09/03 A30 RMK A01 T00860034  RH  070%=      5-min Rain = 0
KME1 170712Z 20011KT 09/03 A3001 RMK A01 T00860034  RH  070%=      5-min Rain = 0
KME1 170713Z 20011KT 09/03 A3001 RMK A01 T00860034  RH  070%=      5-min Rain = 0
KME1 170714Z 20012G17KT 09/03 A3001 RMK A01 T00860034  RH  070%=      5-min Rain = 0
KME1 170715Z 20012KT 09/03 A3001 RMK A01 T00860034  RH  070%=      5-min Rain = 0
KME1 170716Z 20012G18KT 09/03 A3001 RMK A01 T00860034  RH  070%=      5-min Rain = 0
KME1 170717Z 20012KT 09/03 A3001 RMK A01 T00860034  RH  070%=      5-min Rain = 0
KME1 170718Z 21012KT 09/03 A3001 RMK A01 T00860034  RH  070%=      5-min Rain = 0
KME1 170719Z 20011KT 09/03 A3001 RMK A01 T00860034  RH  070%=      5-min Rain = 0
KME1 170720Z 20013KT 09/03 A3001 RMK A01 T00860034  RH  070%=      5-min Rain = 0
KME1 170721Z 21010KT 09/03 A3001 RMK A01 T00850034  RH  070%=      5-min Rain = 0
KME1 170722Z 20010KT 09/03 A3001 RMK A01 T00850034  RH  070%=      5-min Rain = 0
KME1 170723Z 20013KT 09/03 A3001 RMK A01 T00850034  RH  070%=      5-min Rain = 0
KME1 170724Z 19010KT 09/03 A3001 RMK A01 T00850034  RH  070%=      5-min Rain = 0
KME1 170725Z 20010KT 08/03 A3001 RMK A01 T00840033  RH  070%=      5-min Rain = 0
KME1 170726Z 20010G15KT 08/03 A3001 RMK A01 T00840033  RH  070%=      5-min Rain = 0
KME1 170727Z 20011KT 08/03 A3001 RMK A01 T00840033  RH  070%=      5-min Rain = 0
KME1 170728Z 20012KT 08/03 A30 RMK A01 T00840033  RH  070%=      5-min Rain = 0
KME1 170729Z 20011KT 08/03 A30 RMK A01 T00840033  RH  070%=      5-min Rain = 0
KME1 170730Z 20011KT 08/03 A30 RMK A01 T00830033  RH  071%=      5-min Rain = 0
KME1 170731Z 20012KT 08/03 A30 RMK A01 T00830033  RH  071%=      5-min Rain = 0
KME1 170732Z 20010KT 08/03 A30 RMK A01 T00830033  RH  071%=      5-min Rain = 0
KME1 170733Z 20010KT 08/03 A30 RMK A01 T00830033  RH  071%=      5-min Rain = 0
KME1 170734Z 20010G16KT 08/03 A30 RMK A01 T00820033  RH  071%=      5-min Rain = 0
KME1 170735Z 20011KT 08/03 A30 RMK A01 T00820033  RH  071%=      5-min Rain = 0
KME1 170736Z 20010KT 08/03 A30 RMK A01 T00820033  RH  071%=      5-min Rain = 0
KME1 170737Z 20009KT 08/03 A30 RMK A01 T00810033  RH  071%=      5-min Rain = 0
KME1 170738Z 20011KT 08/03 A30 RMK A01 T00810033  RH  071%=      5-min Rain = 0
KME1 170739Z 20009KT 08/03 A30 RMK A01 T00810033  RH  071%=      5-min Rain = 0
KME1 170740Z 20011G16KT 08/03 A30 RMK A01 T00810032  RH  071%=      5-min Rain = 0
KME1 170741Z 20010KT 08/03 A30 RMK A01 T00810033  RH  072%=      5-min Rain = 0
KME1 170742Z 19011KT 08/03 A30 RMK A01 T00810033  RH  071%=      5-min Rain = 0
KME1 170743Z 19011KT 08/03 A30 RMK A01 T00810033  RH  072%=      5-min Rain = 0
KME1 170744Z 20009KT 08/03 A30 RMK A01 T00800032  RH  072%=      5-min Rain = 0
KME1 170745Z 20011KT 08/03 A30 RMK A01 T00800032  RH  072%=      5-min Rain = 0
KME1 170746Z 19010KT 08/03 A30 RMK A01 T00800032  RH  072%=      5-min Rain = 0
KME1 170747Z 20010KT 08/03 A30 RMK A01 T00810033  RH  072%=      5-min Rain = 0
KME1 170748Z 20010KT 08/03 A30 RMK A01 T00800032  RH  072%=      5-min Rain = 0
KME1 170749Z 20009KT 08/03 A30 RMK A01 T00800032  RH  072%=      5-min Rain = 0
KME1 170750Z 20010KT 08/03 A30 RMK A01 T00800032  RH  072%=      5-min Rain = 0
KME1 170751Z 21011KT 08/03 A30 RMK A01 T00800032  RH  072%=      5-min Rain = 0
KME1 170752Z 19010KT 08/03 A30 RMK A01 T00800032  RH  072%=      5-min Rain = 0
KME1 170753Z 20009KT 08/03 A30 RMK A01 T00800032  RH  072%=      5-min Rain = 0
KME1 170754Z 20011G16KT 08/03 A30 RMK A01 T00800032  RH  072%=      5-min Rain = 0
KME1 170755Z 20011KT 08/03 A30 RMK A01 T00790032  RH  072%=      5-min Rain = 0
KME1 170756Z 20013G18KT 08/03 A30 RMK A01 T00790032  RH  072%=      5-min Rain = 0
KME1 170757Z 19009G15KT 08/03 A30 RMK A01 T00790032  RH  072%=      5-min Rain = 0
KME1 170758Z 20011KT 08/03 A30 RMK A01 T00790032  RH  072%=      5-min Rain = 0
KME1 170759Z 20010G15KT 08/03 A30 RMK A01 T00790032  RH  072%=      5-min Rain = 0
KME1 170800Z 20011KT 08/03 A30 RMK A01 T00790032  RH  072%=      5-min Rain = 0
KME1 170801Z 19011KT 08/03 A30 RMK A01 T00780032  RH  072%=      5-min Rain = 0
KME1 170802Z 20009KT 08/03 A30 RMK A01 T00780032  RH  073%=      5-min Rain = 0
KME1 170803Z 20008KT 08/03 A30 RMK A01 T00780032  RH  073%=      5-min Rain = 0
KME1 170804Z 20010KT 08/03 A30 RMK A01 T00770032  RH  073%=      5-min Rain = 0
KME1 170805Z 20012KT 08/03 A30 RMK A01 T00770032  RH  073%=      5-min Rain = 0
KME1 170806Z 20010KT 08/03 A30 RMK A01 T00770032  RH  073%=      5-min Rain = 0
KME1 170807Z 19010KT 08/03 A30 RMK A01 T00770032  RH  073%=      5-min Rain = 0
KME1 170808Z 20009KT 08/03 A30 RMK A01 T00770031  RH  073%=      5-min Rain = 0
KME1 170809Z 20013KT 08/03 A30 RMK A01 T00770032  RH  073%=      5-min Rain = 0
KME1 170810Z 20009KT 08/03 A30 RMK A01 T00770032  RH  073%=      5-min Rain = 0
KME1 170811Z 20009KT 08/03 A30 RMK A01 T00770032  RH  073%=      5-min Rain = 0
KME1 170812Z 19010KT 08/03 A30 RMK A01 T00770032  RH  073%=      5-min Rain = 0
KME1 170813Z 20011KT 08/03 A30 RMK A01 T00770032  RH  073%=      5-min Rain = 0
KME1 170814Z 19009KT 08/03 A30 RMK A01 T00770032  RH  073%=      5-min Rain = 0
KME1 170815Z 19010KT 08/03 A30 RMK A01 T00770032  RH  073%=      5-min Rain = 0
KME1 170816Z 19009KT 08/03 A30 RMK A01 T00770032  RH  073%=      5-min Rain = 0
KME1 170817Z 19010KT 08/03 A30 RMK A01 T00770032  RH  073%=      5-min Rain = 0
KME1 170818Z 20009KT 08/03 A30 RMK A01 T00770032  RH  073%=      5-min Rain = 0
KME1 170819Z 20011KT 08/03 A30 RMK A01 T00770032  RH  073%=      5-min Rain = 0
KME1 170820Z 19012KT 08/03 A30 RMK A01 T00770032  RH  073%=      5-min Rain = 0
KME1 170821Z 20010KT 08/03 A30 RMK A01 T00770032  RH  073%=      5-min Rain = 0
KME1 170822Z 20010KT 08/03 A30 RMK A01 T00770032  RH  073%=      5-min Rain = 0
KME1 170823Z 20012KT 08/03 A2999 RMK A01 T00760031  RH  073%=      5-min Rain = 0
KME1 170824Z 19009KT 08/03 A2999 RMK A01 T00760031  RH  073%=      5-min Rain = 0
KME1 170825Z 20011KT 08/03 A2999 RMK A01 T00760031  RH  073%=      5-min Rain = 0
KME1 170826Z 19012KT 08/03 A2999 RMK A01 T00760031  RH  073%=      5-min Rain = 0
KME1 170827Z 20011G16KT 08/03 A2999 RMK A01 T00760031  RH  073%=      5-min Rain = 0
KME1 170828Z 20010KT 08/03 A2999 RMK A01 T00760031  RH  073%=      5-min Rain = 0
KME1 170829Z 19011KT 08/03 A2999 RMK A01 T00770031  RH  073%=      5-min Rain = 0
KME1 170830Z 20009KT 08/03 A2999 RMK A01 T00760031  RH  073%=      5-min Rain = 0
KME1 170831Z 20011KT 08/03 A2999 RMK A01 T00760031  RH  073%=      5-min Rain = 0
KME1 170832Z 20012KT 08/03 A2999 RMK A01 T00760031  RH  073%=      5-min Rain = 0
KME1 170833Z 20011KT 08/03 A2999 RMK A01 T00760031  RH  073%=      5-min Rain = 0
KME1 170834Z 19011KT 08/03 A2999 RMK A01 T00760031  RH  073%=      5-min Rain = 0
KME1 170835Z 20011KT 08/03 A2999 RMK A01 T00760031  RH  073%=      5-min Rain = 0
KME1 170836Z 19010KT 08/03 A30 RMK A01 T00760031  RH  073%=      5-min Rain = 0
KME1 170837Z 20009KT 08/03 A30 RMK A01 T00770031  RH  073%=      5-min Rain = 0
KME1 170838Z 19010KT 08/03 A30 RMK A01 T00760031  RH  073%=      5-min Rain = 0
KME1 170839Z 20008KT 08/03 A30 RMK A01 T00750031  RH  073%=      5-min Rain = 0
KME1 170840Z 19010KT 08/03 A30 RMK A01 T00750031  RH  073%=      5-min Rain = 0
KME1 170841Z 20010KT 08/03 A30 RMK A01 T00750031  RH  074%=      5-min Rain = 0
KME1 170842Z 19009KT 08/03 A30 RMK A01 T00750031  RH  074%=      5-min Rain = 0
KME1 170843Z 20008KT 08/03 A30 RMK A01 T00750031  RH  074%=      5-min Rain = 0
KME1 170844Z 20011KT 08/03 A30 RMK A01 T00750030  RH  073%=      5-min Rain = 0
KME1 170845Z 21008KT 08/03 A30 RMK A01 T00750031  RH  074%=      5-min Rain = 0
KME1 170846Z 20008KT 07/03 A30 RMK A01 T00740030  RH  074%=      5-min Rain = 0
KME1 170847Z 20008KT 07/03 A30 RMK A01 T00740030  RH  074%=      5-min Rain = 0
KME1 170848Z 20008KT 07/03 A30 RMK A01 T00740030  RH  074%=      5-min Rain = 0
KME1 170849Z 20009KT 07/03 A30 RMK A01 T00740030  RH  074%=      5-min Rain = 0
KME1 170850Z 19010KT 07/03 A30 RMK A01 T00740030  RH  074%=      5-min Rain = 0
KME1 170851Z 19009KT 07/03 A30 RMK A01 T00740030  RH  074%=      5-min Rain = 0
KME1 170852Z 19009KT 07/03 A30 RMK A01 T00740030  RH  074%=      5-min Rain = 0
KME1 170853Z 20009KT 07/03 A30 RMK A01 T00740030  RH  073%=      5-min Rain = 0
KME1 170854Z 20008KT 07/03 A30 RMK A01 T00740030  RH  073%=      5-min Rain = 0
KME1 170855Z 20008KT 08/03 A30 RMK A01 T00750030  RH  073%=      5-min Rain = 0
KME1 170856Z 19008KT 08/03 A30 RMK A01 T00750030  RH  073%=      5-min Rain = 0
KME1 170857Z 20008KT 08/03 A30 RMK A01 T00750030  RH  073%=      5-min Rain = 0
KME1 170858Z 20008KT 07/03 A30 RMK A01 T00740030  RH  073%=      5-min Rain = 0
KME1 170859Z 20007KT 07/03 A30 RMK A01 T00740030  RH  073%=      5-min Rain = 0
KME1 170900Z 19007KT 07/03 A30 RMK A01 T00740030  RH  073%=      5-min Rain = 0
KME1 170901Z 19007KT 07/03 A30 RMK A01 T00740030  RH  073%=      5-min Rain = 0
KME1 170902Z 19007KT 08/03 A30 RMK A01 T00750030  RH  073%=      5-min Rain = 0
KME1 170903Z 19008KT 07/03 A30 RMK A01 T00740029  RH  073%=      5-min Rain = 0
KME1 170904Z 20008KT 07/03 A30 RMK A01 T00740029  RH  073%=      5-min Rain = 0
KME1 170905Z 19006KT 07/03 A30 RMK A01 T00740029  RH  073%=      5-min Rain = 0
KME1 170906Z 19008KT 08/03 A30 RMK A01 T00750029  RH  073%=      5-min Rain = 0
KME1 170907Z 19008KT 08/03 A30 RMK A01 T00750029  RH  073%=      5-min Rain = 0
KME1 170908Z 19007KT 08/03 A30 RMK A01 T00750029  RH  073%=      5-min Rain = 0
KME1 170909Z 20010KT 08/03 A30 RMK A01 T00760029  RH  073%=      5-min Rain = 0
KME1 170910Z 20008KT 08/03 A30 RMK A01 T00770030  RH  072%=      5-min Rain = 0
KME1 170911Z 20008KT 08/03 A30 RMK A01 T00770029  RH  072%=      5-min Rain = 0
KME1 170912Z 20009KT 08/03 A30 RMK A01 T00770029  RH  072%=      5-min Rain = 0
KME1 170913Z 19009KT 08/03 A30 RMK A01 T00770029  RH  072%=      5-min Rain = 0
KME1 170914Z 20008KT 08/03 A30 RMK A01 T00770029  RH  072%=      5-min Rain = 0
KME1 170915Z 19008KT 08/03 A30 RMK A01 T00770029  RH  072%=      5-min Rain = 0
KME1 170916Z 19008KT 08/03 A30 RMK A01 T00770029  RH  072%=      5-min Rain = 0
KME1 170917Z 20007KT 08/03 A30 RMK A01 T00760029  RH  072%=      5-min Rain = 0
KME1 170918Z 19006KT 08/03 A30 RMK A01 T00760029  RH  072%=      5-min Rain = 0
KME1 170919Z 20009KT 08/03 A30 RMK A01 T00760029  RH  072%=      5-min Rain = 0
KME1 170920Z 19008KT 08/03 A30 RMK A01 T00760029  RH  072%=      5-min Rain = 0
KME1 170921Z 20008KT 08/03 A30 RMK A01 T00770029  RH  072%=      5-min Rain = 0
KME1 170922Z 19008KT 08/03 A30 RMK A01 T00770029  RH  072%=      5-min Rain = 0
KME1 170923Z 19007KT 08/03 A30 RMK A01 T00780030  RH  071%=      5-min Rain = 0
KME1 170924Z 20009KT 08/03 A30 RMK A01 T00770029  RH  071%=      5-min Rain = 0
KME1 170925Z 20010KT 08/03 A30 RMK A01 T00770029  RH  072%=      5-min Rain = 0
KME1 170926Z 19011KT 08/03 A2999 RMK A01 T00780029  RH  072%=      5-min Rain = 0
KME1 170927Z 19008KT 08/03 A2999 RMK A01 T00780029  RH  071%=      5-min Rain = 0
KME1 170928Z 19010KT 08/03 A2999 RMK A01 T00780029  RH  071%=      5-min Rain = 0
KME1 170929Z 19009G14KT 08/03 A2999 RMK A01 T00780029  RH  071%=      5-min Rain = 0
KME1 170930Z 20011G16KT 08/03 A2999 RMK A01 T00780029  RH  071%=      5-min Rain = 0
KME1 170931Z 19011KT 08/03 A2999 RMK A01 T00790029  RH  071%=      5-min Rain = 0
KME1 170932Z 19009KT 08/03 A2999 RMK A01 T00790029  RH  071%=      5-min Rain = 0
KME1 170933Z 19009KT 08/03 A2999 RMK A01 T00790029  RH  071%=      5-min Rain = 0
KME1 170934Z 20010KT 08/03 A2999 RMK A01 T00780029  RH  071%=      5-min Rain = 0
KME1 170935Z 20009G14KT 08/03 A2999 RMK A01 T00780029  RH  071%=      5-min Rain = 0
KME1 170936Z 20009KT 08/03 A2999 RMK A01 T00790029  RH  071%=      5-min Rain = 0
KME1 170937Z 20009G15KT 08/03 A2999 RMK A01 T00790029  RH  071%=      5-min Rain = 0
KME1 170938Z 19012G18KT 08/03 A2999 RMK A01 T00790029  RH  071%=      5-min Rain = 0
KME1 170939Z 20014G20KT 08/03 A2999 RMK A01 T00800029  RH  070%=      5-min Rain = 0
KME1 170940Z 20014KT 08/03 A2999 RMK A01 T00820030  RH  069%=      5-min Rain = 0
KME1 170941Z 20011KT 08/03 A2999 RMK A01 T00830030  RH  069%=      5-min Rain = 0
KME1 170942Z 20010KT 08/03 A2999 RMK A01 T00840029  RH  069%=      5-min Rain = 0
KME1 170943Z 20011G16KT 08/03 A2999 RMK A01 T00830029  RH  069%=      5-min Rain = 0
KME1 170944Z 21010KT 08/03 A2999 RMK A01 T00830029  RH  069%=      5-min Rain = 0
KME1 170945Z 20011KT 08/03 A2999 RMK A01 T00830029  RH  069%=      5-min Rain = 0
KME1 170946Z 20009KT 08/03 A2999 RMK A01 T00830029  RH  069%=      5-min Rain = 0
KME1 170947Z 20011KT 08/03 A2999 RMK A01 T00820029  RH  069%=      5-min Rain = 0
KME1 170948Z 21013KT 08/03 A2999 RMK A01 T00820029  RH  069%=      5-min Rain = 0
KME1 170949Z 21013KT 08/03 A2999 RMK A01 T00820029  RH  069%=      5-min Rain = 0
KME1 170950Z 21013KT 08/03 A2999 RMK A01 T00840029  RH  068%=      5-min Rain = 0
KME1 170951Z 20012KT 08/03 A2999 RMK A01 T00840029  RH  068%=      5-min Rain = 0
KME1 170952Z 20012G17KT 08/03 A2999 RMK A01 T00840029  RH  068%=      5-min Rain = 0
KME1 170953Z 20014KT 08/03 A2999 RMK A01 T00840029  RH  068%=      5-min Rain = 0
KME1 170954Z 21013KT 08/03 A2999 RMK A01 T00840029  RH  068%=      5-min Rain = 0
KME1 170955Z 21012KT 09/03 A2999 RMK A01 T00850029  RH  068%=      5-min Rain = 0
KME1 170956Z 20011KT 09/03 A2999 RMK A01 T00850028  RH  068%=      5-min Rain = 0
KME1 170957Z 20012KT 09/03 A2999 RMK A01 T00850028  RH  068%=      5-min Rain = 0
KME1 170958Z 20011KT 08/03 A2999 RMK A01 T00840028  RH  068%=      5-min Rain = 0
KME1 170959Z 21013KT 08/03 A2999 RMK A01 T00840028  RH  068%=      5-min Rain = 0
KME1 171000Z 21009KT 08/03 A2999 RMK A01 T00840028  RH  068%=      5-min Rain = 0
KME1 171001Z 20009G14KT 08/03 A2999 RMK A01 T00840028  RH  068%=      5-min Rain = 0
KME1 171002Z 20010KT 08/03 A2999 RMK A01 T00840028  RH  068%=      5-min Rain = 0
KME1 171003Z 21011KT 08/03 A2999 RMK A01 T00840028  RH  068%=      5-min Rain = 0
KME1 171004Z 20012KT 08/03 A2999 RMK A01 T00840028  RH  068%=      5-min Rain = 0
KME1 171005Z 20012KT 08/03 A2999 RMK A01 T00840028  RH  068%=      5-min Rain = 0
KME1 171006Z 20011G16KT 08/03 A2999 RMK A01 T00840028  RH  068%=      5-min Rain = 0
KME1 171007Z 19013KT 08/03 A2999 RMK A01 T00830028  RH  068%=      5-min Rain = 0
KME1 171008Z 20010KT 08/03 A2999 RMK A01 T00830028  RH  068%=      5-min Rain = 0
KME1 171009Z 20010KT 08/03 A2999 RMK A01 T00820028  RH  068%=      5-min Rain = 0
KME1 171010Z 20011KT 08/03 A2999 RMK A01 T00820028  RH  069%=      5-min Rain = 0
KME1 171011Z 20010KT 08/03 A2999 RMK A01 T00810028  RH  069%=      5-min Rain = 0
KME1 171012Z 20011KT 08/03 A2999 RMK A01 T00810027  RH  069%=      5-min Rain = 0
KME1 171013Z 20012KT 08/03 A2999 RMK A01 T00810028  RH  069%=      5-min Rain = 0
KME1 171014Z 20011KT 08/03 A2999 RMK A01 T00800028  RH  069%=      5-min Rain = 0
KME1 171015Z 21012KT 08/03 A2999 RMK A01 T00800028  RH  069%=      5-min Rain = 0
KME1 171016Z 20012KT 08/03 A2999 RMK A01 T00800028  RH  070%=      5-min Rain = 0
KME1 171017Z 20011KT 08/03 A2998 RMK A01 T00800028  RH  070%=      5-min Rain = 0
KME1 171018Z 20012KT 08/03 A2998 RMK A01 T00790027  RH  070%=      5-min Rain = 0
KME1 171019Z 20010KT 08/03 A2998 RMK A01 T00800028  RH  070%=      5-min Rain = 0
KME1 171020Z 20011KT 08/03 A2998 RMK A01 T00790027  RH  070%=      5-min Rain = 0
KME1 171021Z 20012KT 08/03 A2998 RMK A01 T00790027  RH  070%=      5-min Rain = 0
KME1 171022Z 20012KT 08/03 A2998 RMK A01 T00780027  RH  070%=      5-min Rain = 0
KME1 171023Z 20011KT 08/03 A2998 RMK A01 T00780027  RH  070%=      5-min Rain = 0
KME1 171024Z 20011KT 08/03 A2998 RMK A01 T00790027  RH  070%=      5-min Rain = 0
KME1 171025Z 20011KT 08/03 A2998 RMK A01 T00790027  RH  070%=      5-min Rain = 0
KME1 171026Z 20012KT 08/03 A2998 RMK A01 T00790028  RH  070%=      5-min Rain = 0
KME1 171027Z 20011KT 08/03 A2998 RMK A01 T00780027  RH  070%=      5-min Rain = 0
KME1 171028Z 20011KT 08/03 A2998 RMK A01 T00780027  RH  070%=      5-min Rain = 0
KME1 171029Z 20010KT 08/03 A2998 RMK A01 T00780027  RH  070%=      5-min Rain = 0
KME1 171030Z 20011KT 08/03 A2998 RMK A01 T00780027  RH  070%=      5-min Rain = 0
KME1 171031Z 19010KT 08/03 A2998 RMK A01 T00770027  RH  070%=      5-min Rain = 0
KME1 171032Z 20010KT 08/03 A2999 RMK A01 T00770027  RH  071%=      5-min Rain = 0
KME1 171033Z 20010KT 08/03 A2999 RMK A01 T00760027  RH  071%=      5-min Rain = 0
KME1 171034Z 20011KT 08/03 A2999 RMK A01 T00760027  RH  071%=      5-min Rain = 0
KME1 171035Z 20010KT 08/03 A2999 RMK A01 T00760027  RH  071%=      5-min Rain = 0
KME1 171036Z 20010KT 08/03 A2999 RMK A01 T00750026  RH  071%=      5-min Rain = 0
KME1 171037Z 20010KT 08/03 A2998 RMK A01 T00750026  RH  071%=      5-min Rain = 0
KME1 171038Z 19012KT 08/03 A2998 RMK A01 T00760027  RH  071%=      5-min Rain = 0
KME1 171039Z 19010KT 08/03 A2998 RMK A01 T00760027  RH  071%=      5-min Rain = 0
KME1 171040Z 19011KT 08/03 A2998 RMK A01 T00760027  RH  071%=      5-min Rain = 0
KME1 171041Z 19011KT 08/03 A2999 RMK A01 T00760027  RH  071%=      5-min Rain = 0
KME1 171042Z 20010KT 08/03 A2999 RMK A01 T00750026  RH  071%=      5-min Rain = 0
KME1 171043Z 19010KT 08/03 A2999 RMK A01 T00750026  RH  071%=      5-min Rain = 0
KME1 171044Z 20011KT 08/03 A2999 RMK A01 T00750027  RH  072%=      5-min Rain = 0
KME1 171045Z 20011KT 08/03 A2999 RMK A01 T00750027  RH  072%=      5-min Rain = 0
KME1 171046Z 19011KT 07/03 A2999 RMK A01 T00740027  RH  072%=      5-min Rain = 0
KME1 171047Z 19012G17KT 07/03 A2999 RMK A01 T00740026  RH  072%=      5-min Rain = 0
KME1 171048Z 20013KT 07/03 A2999 RMK A01 T00740027  RH  072%=      5-min Rain = 0
KME1 171049Z 20012KT 07/03 A2999 RMK A01 T00740026  RH  072%=      5-min Rain = 0
KME1 171050Z 20011KT 08/03 A2999 RMK A01 T00750027  RH  071%=      5-min Rain = 0
KME1 171051Z 20012KT 08/03 A2999 RMK A01 T00750027  RH  071%=      5-min Rain = 0
KME1 171052Z 20011KT 07/03 A2999 RMK A01 T00740026  RH  072%=      5-min Rain = 0
KME1 171053Z 20012KT 07/03 A2999 RMK A01 T00740026  RH  072%=      5-min Rain = 0
KME1 171054Z 19011KT 07/03 A2999 RMK A01 T00730026  RH  072%=      5-min Rain = 0
KME1 171055Z 20010KT 07/03 A2999 RMK A01 T00730026  RH  072%=      5-min Rain = 0
KME1 171056Z 20012KT 07/03 A2999 RMK A01 T00730026  RH  072%=      5-min Rain = 0
KME1 171057Z 20012KT 07/03 A2999 RMK A01 T00730026  RH  072%=      5-min Rain = 0
KME1 171058Z 20012KT 07/03 A2999 RMK A01 T00730026  RH  072%=      5-min Rain = 0
KME1 171059Z 21012KT 07/03 A2999 RMK A01 T00730026  RH  072%=      5-min Rain = 0
KME1 171100Z 21010KT 07/03 A2999 RMK A01 T00730026  RH  072%=      5-min Rain = 0
KME1 171101Z 21011KT 07/03 A2999 RMK A01 T00730026  RH  072%=      5-min Rain = 0
KME1 171102Z 21011KT 07/03 A2999 RMK A01 T00740026  RH  072%=      5-min Rain = 0
KME1 171103Z 21012KT 07/03 A2999 RMK A01 T00730026  RH  072%=      5-min Rain = 0
KME1 171104Z 20014KT 07/03 A2999 RMK A01 T00740026  RH  072%=      5-min Rain = 0
KME1 171105Z 20013KT 07/03 A2999 RMK A01 T00740026  RH  072%=      5-min Rain = 0
KME1 171106Z 20013KT 08/03 A2999 RMK A01 T00750026  RH  071%=      5-min Rain = 0
KME1 171107Z 21013KT 08/03 A2999 RMK A01 T00750026  RH  071%=      5-min Rain = 0
KME1 171108Z 21012KT 08/03 A2999 RMK A01 T00750026  RH  071%=      5-min Rain = 0
KME1 171109Z 21014KT 08/03 A2999 RMK A01 T00760026  RH  071%=      5-min Rain = 0
KME1 171110Z 21012KT 08/03 A2999 RMK A01 T00760026  RH  070%=      5-min Rain = 0
KME1 171111Z 21013KT 08/03 A2999 RMK A01 T00760026  RH  070%=      5-min Rain = 0
KME1 171112Z 21012KT 08/03 A2999 RMK A01 T00770026  RH  070%=      5-min Rain = 0
KME1 171113Z 21014KT 08/03 A2999 RMK A01 T00770026  RH  070%=      5-min Rain = 0
KME1 171114Z 21014KT 08/03 A2998 RMK A01 T00770026  RH  070%=      5-min Rain = 0
KME1 171115Z 21013KT 08/03 A2998 RMK A01 T00770026  RH  070%=      5-min Rain = 0
KME1 171116Z 21013KT 08/03 A2998 RMK A01 T00780026  RH  070%=      5-min Rain = 0
KME1 171117Z 21012KT 08/03 A2999 RMK A01 T00770026  RH  070%=      5-min Rain = 0
KME1 171118Z 21013KT 08/03 A2999 RMK A01 T00770026  RH  070%=      5-min Rain = 0
KME1 171119Z 21013KT 08/03 A2999 RMK A01 T00770026  RH  070%=      5-min Rain = 0
KME1 171120Z 21013KT 08/03 A2999 RMK A01 T00770026  RH  070%=      5-min Rain = 0
KME1 171121Z 21013KT 08/03 A2999 RMK A01 T00770026  RH  070%=      5-min Rain = 0
KME1 171122Z 21011KT 08/03 A2999 RMK A01 T00770026  RH  070%=      5-min Rain = 0
KME1 171123Z 20011KT 08/03 A2999 RMK A01 T00770025  RH  070%=      5-min Rain = 0
KME1 171124Z 21011KT 08/03 A2999 RMK A01 T00770025  RH  070%=      5-min Rain = 0
KME1 171125Z 21010KT 08/03 A2999 RMK A01 T00760026  RH  070%=      5-min Rain = 0
KME1 171126Z 20012KT 08/03 A2999 RMK A01 T00760026  RH  070%=      5-min Rain = 0
KME1 171127Z 20012KT 08/03 A2999 RMK A01 T00760026  RH  071%=      5-min Rain = 0
KME1 171128Z 20012KT 08/03 A2999 RMK A01 T00760026  RH  071%=      5-min Rain = 0
KME1 171129Z 20012KT 08/03 A2999 RMK A01 T00760025  RH  071%=      5-min Rain = 0
KME1 171130Z 20011KT 08/03 A2999 RMK A01 T00750025  RH  071%=      5-min Rain = 0
KME1 171131Z 20011KT 08/03 A2999 RMK A01 T00750025  RH  071%=      5-min Rain = 0
KME1 171132Z 20012KT 07/03 A2998 RMK A01 T00740025  RH  071%=      5-min Rain = 0
KME1 171133Z 21013KT 08/03 A2998 RMK A01 T00750026  RH  071%=      5-min Rain = 0
KME1 171134Z 21011KT 08/03 A2999 RMK A01 T00750026  RH  071%=      5-min Rain = 0
KME1 171135Z 21012KT 08/03 A2999 RMK A01 T00750025  RH  071%=      5-min Rain = 0
KME1 171136Z 21013KT 08/03 A2999 RMK A01 T00750025  RH  071%=      5-min Rain = 0
KME1 171137Z 20012KT 08/03 A2999 RMK A01 T00750026  RH  071%=      5-min Rain = 0
KME1 171138Z 21011KT 08/03 A2999 RMK A01 T00760026  RH  070%=      5-min Rain = 0
KME1 171139Z 21011KT 08/03 A2999 RMK A01 T00760026  RH  070%=      5-min Rain = 0
KME1 171140Z 21012KT 08/03 A2999 RMK A01 T00760026  RH  070%=      5-min Rain = 0
KME1 171141Z 21013KT 08/03 A2999 RMK A01 T00750026  RH  071%=      5-min Rain = 0
KME1 171142Z 20013KT 08/03 A2999 RMK A01 T00760026  RH  071%=      5-min Rain = 0
KME1 171143Z 20013KT 08/03 A2999 RMK A01 T00760026  RH  070%=      5-min Rain = 0
KME1 171144Z 21014KT 08/03 A2999 RMK A01 T00760026  RH  070%=      5-min Rain = 0
KME1 171145Z 20011KT 08/03 A2999 RMK A01 T00760026  RH  070%=      5-min Rain = 0
KME1 171146Z 20012KT 08/03 A2999 RMK A01 T00760025  RH  070%=      5-min Rain = 0
KME1 171147Z 21012KT 08/03 A2999 RMK A01 T00750025  RH  071%=      5-min Rain = 0
KME1 171148Z 20011KT 08/03 A2999 RMK A01 T00750025  RH  071%=      5-min Rain = 0
KME1 171149Z 20012KT 08/03 A2999 RMK A01 T00750025  RH  071%=      5-min Rain = 0
KME1 171150Z 20012KT 07/03 A2999 RMK A01 T00740025  RH  071%=      5-min Rain = 0
KME1 171151Z 20012KT 07/03 A2999 RMK A01 T00730025  RH  071%=      5-min Rain = 0
KME1 171152Z 20012KT 07/03 A2999 RMK A01 T00730025  RH  072%=      5-min Rain = 0
KME1 171153Z 20012KT 07/03 A2999 RMK A01 T00720025  RH  072%=      5-min Rain = 0
KME1 171154Z 21012KT 07/03 A2999 RMK A01 T00730025  RH  072%=      5-min Rain = 0
KME1 171155Z 21012KT 07/03 A2999 RMK A01 T00730025  RH  072%=      5-min Rain = 0
KME1 171156Z 21012KT 07/03 A2999 RMK A01 T00730025  RH  072%=      5-min Rain = 0
KME1 171157Z 20012KT 07/03 A2999 RMK A01 T00730025  RH  072%=      5-min Rain = 0
KME1 171158Z 20010KT 07/03 A2999 RMK A01 T00730025  RH  072%=      5-min Rain = 0
KME1 171159Z 21011KT 07/03 A2999 RMK A01 T00730025  RH  072%=      5-min Rain = 0
KME1 171200Z 21009KT 07/03 A2999 RMK A01 T00720025  RH  072%=      5-min Rain = 0
KME1 171201Z 21011KT 07/03 A2999 RMK A01 T00720025  RH  072%=      5-min Rain = 0
KME1 171202Z 21010KT 07/03 ANAN RMK A01 T00720025  RH  072%=      5-min Rain = 0
KME1 171203Z 22009KT 07/03 ANAN RMK A01 T00710025  RH  072%=      5-min Rain = 0
KME1 171204Z 21010KT 07/03 ANAN RMK A01 T00710025  RH  072%=      5-min Rain = 0
KME1 171205Z 21011KT 07/03 ANAN RMK A01 T00700025  RH  073%=      5-min Rain = 0
KME1 171206Z 21011KT 07/03 ANAN RMK A01 T00700025  RH  073%=      5-min Rain = 0
KME1 171207Z 21011KT 07/03 ANAN RMK A01 T00700025  RH  073%=      5-min Rain = 0
KME1 171208Z 21010KT 07/03 ANAN RMK A01 T00700025  RH  073%=      5-min Rain = 0
KME1 171209Z 21012KT 07/03 ANAN RMK A01 T00700025  RH  073%=      5-min Rain = 0
KME1 171210Z 21011KT 07/03 ANAN RMK A01 T00700025  RH  073%=      5-min Rain = 0
KME1 171211Z 20012KT 07/03 ANAN RMK A01 T00710025  RH  073%=      5-min Rain = 0
KME1 171212Z 20012KT 07/03 ANAN RMK A01 T00710025  RH  073%=      5-min Rain = 0
KME1 171213Z 20011KT 07/03 ANAN RMK A01 T00710025  RH  072%=      5-min Rain = 0
KME1 171214Z 20013KT 07/03 ANAN RMK A01 T00710025  RH  072%=      5-min Rain = 0
KME1 171215Z 20014KT 07/03 ANAN RMK A01 T00710025  RH  072%=      5-min Rain = 0
KME1 171216Z 20013KT 07/03 ANAN RMK A01 T00720025  RH  072%=      5-min Rain = 0
KME1 171217Z 20012KT 07/03 ANAN RMK A01 T00730025  RH  072%=      5-min Rain = 0
KME1 171218Z 20013KT 07/03 ANAN RMK A01 T00730025  RH  072%=      5-min Rain = 0
KME1 171219Z 20013KT 07/03 ANAN RMK A01 T00730025  RH  072%=      5-min Rain = 0
KME1 171220Z 20013KT 07/03 ANAN RMK A01 T00730025  RH  071%=      5-min Rain = 0
KME1 171221Z 20013KT 07/03 ANAN RMK A01 T00730025  RH  071%=      5-min Rain = 0
KME1 171222Z 20010KT 07/03 ANAN RMK A01 T00740025  RH  071%=      5-min Rain = 0
KME1 171223Z 20010KT 07/03 ANAN RMK A01 T00740025  RH  071%=      5-min Rain = 0
KME1 171224Z 21010KT 07/02 ANAN RMK A01 T00730024  RH  071%=      5-min Rain = 0
KME1 171225Z 20010KT 07/02 ANAN RMK A01 T00720024  RH  072%=      5-min Rain = 0
KME1 171227Z 20012KT 07/03 ANAN RMK A01 T00720025  RH  072%=      5-min Rain = 0
KME1 171228Z 20011KT 07/03 ANAN RMK A01 T00720025  RH  072%=      5-min Rain = 0
KME1 171229Z 20011KT 07/03 ANAN RMK A01 T00720025  RH  072%=      5-min Rain = 0
KME1 171230Z 20010KT 07/03 ANAN RMK A01 T00730025  RH  072%=      5-min Rain = 0
KME1 171231Z 20010KT 07/02 ANAN RMK A01 T00720024  RH  072%=      5-min Rain = 0
KME1 171232Z 20011KT 07/02 ANAN RMK A01 T00710024  RH  072%=      5-min Rain = 0
KME1 171233Z 20012KT 07/02 ANAN RMK A01 T00710024  RH  072%=      5-min Rain = 0
KME1 171236Z 19011KT 07/02 ANAN RMK A01 T00710024  RH  072%=      5-min Rain = 0
KME1 171237Z 20012KT 07/03 ANAN RMK A01 T00710025  RH  072%=      5-min Rain = 0
KME1 171238Z 19011KT 07/02 ANAN RMK A01 T00710024  RH  072%=      5-min Rain = 0
KME1 171240Z 19011KT 07/02 ANAN RMK A01 T00700024  RH  072%=      5-min Rain = 0
KME1 171246Z 19010KT 07/02 ANAN RMK A01 T00680024  RH  073%=      5-min Rain = 0
KME1 171247Z 20008KT 07/02 ANAN RMK A01 T00670024  RH  074%=      5-min Rain = 0
KME1 171249Z 20009KT 07/02 ANAN RMK A01 T00660024  RH  074%=      5-min Rain = 0
KME1 171250Z 20009KT 07/02 ANAN RMK A01 T00660024  RH  074%=      5-min Rain = 0
KME1 171251Z 20009KT 07/02 ANAN RMK A01 T00670024  RH  074%=      5-min Rain = 0
KME1 171253Z 20009KT 07/02 ANAN RMK A01 T00670024  RH  074%=      5-min Rain = 0
KME1 171255Z 20009KT 07/02 ANAN RMK A01 T00670024  RH  074%=      5-min Rain = 0
KME1 171256Z 21008KT 07/02 ANAN RMK A01 T00670024  RH  074%=      5-min Rain = 0
KME1 171257Z 20007KT 07/02 ANAN RMK A01 T00680024  RH  074%=      5-min Rain = 0
KME1 171259Z 20008KT 07/02 ANAN RMK A01 T00680024  RH  074%=      5-min Rain = 0
KME1 171302Z 19007KT 07/02 ANAN RMK A01 T00670024  RH  074%=      5-min Rain = 0
KME1 171303Z 19011KT 07/02 ANAN RMK A01 T00670024  RH  074%=      5-min Rain = 0
KME1 171304Z 19009KT 07/02 ANAN RMK A01 T00670024  RH  074%=      5-min Rain = 0
KME1 171306Z 19010KT 07/02 ANAN RMK A01 T00670024  RH  074%=      5-min Rain = 0
KME1 171313Z 19008G13KT 07/02 ANAN RMK A01 T00680024  RH  074%=      5-min Rain = 0
KME1 171314Z 20007KT 07/02 ANAN RMK A01 T00700024  RH  073%=      5-min Rain = 0
KME1 171317Z 20007KT 07/02 ANAN RMK A01 T00690024  RH  073%=      5-min Rain = 0
KME1 171320Z 19008KT 07/02 ANAN RMK A01 T00690024  RH  073%=      5-min Rain = 0
KME1 171321Z 19008KT 07/03 ANAN RMK A01 T00690025  RH  073%=      5-min Rain = 0
KME1 171322Z 19008KT 07/03 ANAN RMK A01 T00700025  RH  073%=      5-min Rain = 0
KME1 171323Z 19009KT 07/03 ANAN RMK A01 T00700025  RH  073%=      5-min Rain = 0
KME1 171325Z 20008KT 07/03 ANAN RMK A01 T00710025  RH  073%=      5-min Rain = 0
KME1 171326Z 20007KT 07/03 ANAN RMK A01 T00710025  RH  072%=      5-min Rain = 0
KME1 171327Z 20006KT 07/03 ANAN RMK A01 T00710025  RH  072%=      5-min Rain = 0
KME1 171328Z 20006KT 07/02 ANAN RMK A01 T00700024  RH  072%=      5-min Rain = 0
KME1 171329Z 20007KT 07/02 ANAN RMK A01 T00690024  RH  073%=      5-min Rain = 0
KME1 171330Z 20006KT 07/02 ANAN RMK A01 T00690024  RH  073%=      5-min Rain = 0
KME1 171331Z 20009KT 07/03 ANAN RMK A01 T00690025  RH  073%=      5-min Rain = 0
KME1 171332Z 20009KT 07/03 ANAN RMK A01 T00720027  RH  073%=      5-min Rain = 0
KME1 171333Z 20009G14KT 07/03 ANAN RMK A01 T00740027  RH  072%=      5-min Rain = 0
KME1 171334Z 20009KT 08/03 ANAN RMK A01 T00760027  RH  071%=      5-min Rain = 0
KME1 171335Z 20006KT 08/03 ANAN RMK A01 T00780028  RH  071%=      5-min Rain = 0
KME1 171336Z 20008KT 08/03 ANAN RMK A01 T00780027  RH  070%=      5-min Rain = 0
KME1 171337Z 21008KT 08/03 ANAN RMK A01 T00790028  RH  070%=      5-min Rain = 0
KME1 171338Z 21009KT 08/03 ANAN RMK A01 T00800028  RH  070%=      5-min Rain = 0
KME1 171339Z 20006KT 08/03 ANAN RMK A01 T00810028  RH  069%=      5-min Rain = 0
KME1 171340Z 20007KT 08/03 ANAN RMK A01 T00810028  RH  069%=      5-min Rain = 0
KME1 171341Z 20005KT 08/03 ANAN RMK A01 T00800027  RH  069%=      5-min Rain = 0
KME1 171342Z 21004KT 08/03 ANAN RMK A01 T00790027  RH  069%=      5-min Rain = 0
KME1 171343Z 22003KT 08/03 ANAN RMK A01 T00780027  RH  070%=      5-min Rain = 0
KME1 171344Z 21006KT 08/03 ANAN RMK A01 T00780027  RH  070%=      5-min Rain = 0
KME1 171345Z 21005KT 08/03 ANAN RMK A01 T00790027  RH  070%=      5-min Rain = 0
KME1 171346Z 24005KT 08/03 ANAN RMK A01 T00800028  RH  070%=      5-min Rain = 0
KME1 171347Z 23004KT 08/03 ANAN RMK A01 T00810028  RH  069%=      5-min Rain = 0
KME1 171348Z 22003KT 08/03 ANAN RMK A01 T00810028  RH  069%=      5-min Rain = 0
KME1 171349Z 21004KT 08/03 ANAN RMK A01 T00800027  RH  069%=      5-min Rain = 0
KME1 171350Z 22005KT 08/03 ANAN RMK A01 T00790026  RH  069%=      5-min Rain = 0
KME1 171351Z 21005KT 08/03 A3005 RMK A01 T00790027  RH  070%=      5-min Rain = 0
KME1 171352Z 22006KT 08/03 A3005 RMK A01 T00790028  RH  070%=      5-min Rain = 0
KME1 171353Z 21006KT 08/03 A3005 RMK A01 T00810028  RH  069%=      5-min Rain = 0
KME1 171354Z 21007KT 08/03 A3005 RMK A01 T00820028  RH  069%=      5-min Rain = 0
KME1 171355Z 21006KT 08/03 A3005 RMK A01 T00840029  RH  068%=      5-min Rain = 0
KME1 171356Z 21004KT 09/03 A3005 RMK A01 T00850029  RH  068%=      5-min Rain = 0
KME1 171357Z 19003KT 08/03 A3005 RMK A01 T00840028  RH  068%=      5-min Rain = 0
KME1 171358Z 21004KT 08/03 A3006 RMK A01 T00830027  RH  068%=      5-min Rain = 0
KME1 171359Z 22005KT 08/03 A3006 RMK A01 T00830028  RH  068%=      5-min Rain = 0
KME1 171400Z 22006KT 09/03 A3006 RMK A01 T00850029  RH  068%=      5-min Rain = 0
KME1 171401Z 21006KT 09/03 A3006 RMK A01 T00870030  RH  067%=      5-min Rain = 0
KME1 171402Z 17002KT 09/03 A3006 RMK A01 T00900031  RH  066%=      5-min Rain = 0
KME1 171403Z 28001KT 09/03 A3006 RMK A01 T00900030  RH  066%=      5-min Rain = 0
KME1 171404Z 24006KT 09/03 A3006 RMK A01 T00900030  RH  066%=      5-min Rain = 0
KME1 171405Z 22004KT 09/03 A3006 RMK A01 T00920031  RH  066%=      5-min Rain = 0
KME1 171406Z 19003KT 09/03 A3006 RMK A01 T00940032  RH  065%=      5-min Rain = 0
KME1 171407Z 15002KT 10/03 A3006 RMK A01 T00950031  RH  064%=      5-min Rain = 0
KME1 171408Z 19002KT 09/03 A3006 RMK A01 T00940030  RH  065%=      5-min Rain = 0
KME1 171409Z 21003KT 09/03 A3006 RMK A01 T00930030  RH  065%=      5-min Rain = 0
KME1 171410Z 22005KT 09/03 A3006 RMK A01 T00920030  RH  065%=      5-min Rain = 0
KME1 171411Z 22005KT 09/03 A3006 RMK A01 T00940032  RH  065%=      5-min Rain = 0
KME1 171412Z 22007KT 10/03 A3006 RMK A01 T00960033  RH  064%=      5-min Rain = 0
KME1 171413Z 20008KT 10/03 A3006 RMK A01 T00980033  RH  064%=      5-min Rain = 0
KME1 171414Z 19005KT 10/03 A3006 RMK A01 T00990032  RH  063%=      5-min Rain = 0
KME1 171415Z 19005KT 10/03 A3006 RMK A01 T00990032  RH  063%=      5-min Rain = 0
KME1 171416Z 19005KT 10/03 A3006 RMK A01 T00970032  RH  064%=      5-min Rain = 0
KME1 171417Z 20006KT 10/03 A3006 RMK A01 T00970032  RH  064%=      5-min Rain = 0
KME1 171418Z 21008KT 10/03 A3006 RMK A01 T00970032  RH  064%=      5-min Rain = 0
KME1 171419Z 21009KT 10/03 A3006 RMK A01 T00990033  RH  064%=      5-min Rain = 0
KME1 171420Z 21007KT 10/03 A3006 RMK A01 T01020033  RH  063%=      5-min Rain = 0
KME1 171421Z 22005KT 10/03 A3006 RMK A01 T01030034  RH  062%=      5-min Rain = 0
KME1 171422Z 22007KT 11/03 A3006 RMK A01 T01050034  RH  061%=      5-min Rain = 0
KME1 171423Z 22006KT 11/04 A3006 RMK A01 T01070035  RH  061%=      5-min Rain = 0
KME1 171424Z 22004KT 11/04 A3006 RMK A01 T01080035  RH  061%=      5-min Rain = 0
KME1 171425Z 22006KT 11/04 A3006 RMK A01 T01100036  RH  060%=      5-min Rain = 0
KME1 171426Z 22005KT 11/04 A3006 RMK A01 T01100035  RH  060%=      5-min Rain = 0
KME1 171427Z 22005KT 11/04 A3006 RMK A01 T01100035  RH  060%=      5-min Rain = 0
KME1 171428Z 21006KT 11/04 A3006 RMK A01 T01110035  RH  060%=      5-min Rain = 0
KME1 171429Z 20006KT 11/04 A3006 RMK A01 T01100035  RH  059%=      5-min Rain = 0
KME1 171430Z 20007KT 11/04 A3006 RMK A01 T01100035  RH  060%=      5-min Rain = 0
KME1 171431Z 20007KT 11/04 A3006 RMK A01 T01110035  RH  059%=      5-min Rain = 0
KME1 171432Z 21007KT 11/04 A3006 RMK A01 T01120035  RH  059%=      5-min Rain = 0
KME1 171433Z 21005KT 11/04 A3006 RMK A01 T01120035  RH  059%=      5-min Rain = 0
KME1 171434Z 21004KT 11/04 A3006 RMK A01 T01130036  RH  059%=      5-min Rain = 0
KME1 171435Z 23004KT 12/04 A3006 RMK A01 T01150037  RH  059%=      5-min Rain = 0
KME1 171436Z 22004KT 12/04 A3007 RMK A01 T01170038  RH  058%=      5-min Rain = 0
KME1 171437Z 22007KT 12/04 A3007 RMK A01 T01180037  RH  058%=      5-min Rain = 0
KME1 171438Z 21005KT 12/04 A3006 RMK A01 T01180036  RH  057%=      5-min Rain = 0
KME1 171439Z 24004KT 12/04 A3007 RMK A01 T01170037  RH  058%=      5-min Rain = 0
KME1 171440Z 24003KT 12/04 A3007 RMK A01 T01180037  RH  058%=      5-min Rain = 0
KME1 171441Z 22003KT 12/04 A3007 RMK A01 T01180037  RH  058%=      5-min Rain = 0
KME1 171442Z 24004KT 12/04 A3007 RMK A01 T01200038  RH  057%=      5-min Rain = 0
KME1 171443Z 25004KT 12/04 A3007 RMK A01 T01210039  RH  057%=      5-min Rain = 0
KME1 171444Z 24004KT 12/04 A3007 RMK A01 T01220039  RH  057%=      5-min Rain = 0
KME1 171445Z 25006KT 12/04 A3007 RMK A01 T01230039  RH  056%=      5-min Rain = 0
KME1 171446Z 24006KT 12/04 A3007 RMK A01 T01240038  RH  056%=      5-min Rain = 0
KME1 171447Z 25006KT 12/04 A3007 RMK A01 T01240038  RH  056%=      5-min Rain = 0
KME1 171448Z 24005KT 13/04 A3007 RMK A01 T01250038  RH  056%=      5-min Rain = 0
KME1 171449Z 25006KT 13/04 A3007 RMK A01 T01250038  RH  056%=      5-min Rain = 0
KME1 171450Z 25003KT 13/04 A3007 RMK A01 T01250038  RH  056%=      5-min Rain = 0
KME1 171451Z 28002KT 13/04 A3007 RMK A01 T01260039  RH  056%=      5-min Rain = 0
KME1 171452Z 30002KT 13/04 A3007 RMK A01 T01280041  RH  055%=      5-min Rain = 0
KME1 171453Z 25003KT 13/04 A3007 RMK A01 T01300041  RH  055%=      5-min Rain = 0
KME1 171454Z 27004KT 13/04 A3007 RMK A01 T01310040  RH  054%=      5-min Rain = 0
KME1 171455Z 29005KT 13/04 A3007 RMK A01 T01310039  RH  054%=      5-min Rain = 0
KME1 171456Z 30006KT 13/04 A3007 RMK A01 T01300039  RH  054%=      5-min Rain = 0
KME1 171457Z 30006KT 13/04 A3007 RMK A01 T01310040  RH  054%=      5-min Rain = 0
KME1 171458Z 29007KT 13/04 A3007 RMK A01 T01310040  RH  054%=      5-min Rain = 0
KME1 171459Z 29007KT 13/04 A3008 RMK A01 T01310039  RH  054%=      5-min Rain = 0
KME1 171500Z 29007KT 13/04 A3008 RMK A01 T01310039  RH  054%=      5-min Rain = 0
KME1 171501Z 28007KT 13/04 A3008 RMK A01 T01310039  RH  054%=      5-min Rain = 0
KME1 171502Z 27008KT 13/04 A3008 RMK A01 T01310040  RH  054%=      5-min Rain = 0
KME1 171503Z 28005KT 13/04 A3008 RMK A01 T01310039  RH  054%=      5-min Rain = 0
KME1 171504Z 31008KT 13/04 A3008 RMK A01 T01310040  RH  054%=      5-min Rain = 0
KME1 171505Z 31005KT 13/04 A3008 RMK A01 T01310040  RH  054%=      5-min Rain = 0
KME1 171506Z 31007KT 13/04 A3008 RMK A01 T01310040  RH  054%=      5-min Rain = 0
KME1 171507Z 31009KT 13/04 A3008 RMK A01 T01310040  RH  054%=      5-min Rain = 0
KME1 171508Z 31008KT 13/04 A3008 RMK A01 T01310039  RH  054%=      5-min Rain = 0
KME1 171509Z 31008KT 13/04 A3008 RMK A01 T01300039  RH  054%=      5-min Rain = 0
KME1 171510Z 30009KT 13/04 A3008 RMK A01 T01290039  RH  054%=      5-min Rain = 0
KME1 171511Z 29008KT 13/04 A3008 RMK A01 T01300039  RH  054%=      5-min Rain = 0
KME1 171512Z 31007KT 13/04 A3008 RMK A01 T01290040  RH  054%=      5-min Rain = 0
KME1 171513Z 32006KT 13/04 A3008 RMK A01 T01290040  RH  055%=      5-min Rain = 0
KME1 171514Z 31010KT 13/04 A3008 RMK A01 T01310041  RH  054%=      5-min Rain = 0
KME1 171515Z 29008KT 13/04 A3008 RMK A01 T01310039  RH  054%=      5-min Rain = 0
KME1 171516Z 28007KT 13/04 A3008 RMK A01 T01290039  RH  054%=      5-min Rain = 0
KME1 171517Z 28007KT 13/04 A3008 RMK A01 T01290040  RH  054%=      5-min Rain = 0
KME1 171518Z 29007KT 13/04 A3008 RMK A01 T01300040  RH  054%=      5-min Rain = 0
KME1 171519Z 32006KT 13/04 A3008 RMK A01 T01300040  RH  054%=      5-min Rain = 0
KME1 171520Z 31008KT 13/04 A3008 RMK A01 T01300040  RH  054%=      5-min Rain = 0
KME1 171521Z 30008KT 13/04 A3009 RMK A01 T01300039  RH  054%=      5-min Rain = 0
KME1 171522Z 30008KT 13/04 A3009 RMK A01 T01290039  RH  054%=      5-min Rain = 0
KME1 171523Z 31008KT 13/04 A3009 RMK A01 T01280039  RH  054%=      5-min Rain = 0
KME1 171524Z 30008KT 13/04 A3009 RMK A01 T01280039  RH  055%=      5-min Rain = 0
KME1 171525Z 30006KT 13/04 A3009 RMK A01 T01280039  RH  055%=      5-min Rain = 0
KME1 171526Z 31005KT 13/04 A3009 RMK A01 T01290040  RH  055%=      5-min Rain = 0
KME1 171527Z 33006KT 13/04 A3009 RMK A01 T01310041  RH  055%=      5-min Rain = 0
KME1 171528Z 31007KT 13/04 A3009 RMK A01 T01320040  RH  054%=      5-min Rain = 0
KME1 171529Z 32008KT 13/04 A3009 RMK A01 T01310040  RH  054%=      5-min Rain = 0
KME1 171530Z 32008KT 13/04 A3009 RMK A01 T01290039  RH  054%=      5-min Rain = 0
KME1 171531Z 33007KT 13/04 A3009 RMK A01 T01290039  RH  054%=      5-min Rain = 0
KME1 171532Z 32007KT 13/04 A3009 RMK A01 T01290040  RH  055%=      5-min Rain = 0
KME1 171533Z 32008KT 13/04 A3009 RMK A01 T01280039  RH  055%=      5-min Rain = 0
KME1 171534Z 32007KT 13/04 A3009 RMK A01 T01280039  RH  055%=      5-min Rain = 0
KME1 171535Z 32010KT 13/04 A3009 RMK A01 T01270040  RH  055%=      5-min Rain = 0
KME1 171536Z 32008KT 13/04 A3009 RMK A01 T01270039  RH  055%=      5-min Rain = 0
KME1 171537Z 31008KT 13/04 A3009 RMK A01 T01270039  RH  055%=      5-min Rain = 0
KME1 171538Z 32008KT 13/04 A3009 RMK A01 T01270039  RH  055%=      5-min Rain = 0
KME1 171539Z 31006KT 13/04 A3009 RMK A01 T01270039  RH  055%=      5-min Rain = 0
KME1 171540Z 31006KT 13/04 A3009 RMK A01 T01280039  RH  055%=      5-min Rain = 0
KME1 171541Z 32006KT 13/04 A3009 RMK A01 T01280040  RH  055%=      5-min Rain = 0
KME1 171542Z 34008KT 13/04 A3009 RMK A01 T01290040  RH  055%=      5-min Rain = 0
KME1 171543Z 34005KT 13/04 A3009 RMK A01 T01310041  RH  055%=      5-min Rain = 0
KME1 171544Z 31007KT 13/04 A3009 RMK A01 T01330042  RH  054%=      5-min Rain = 0
KME1 171545Z 31005KT 13/04 A3009 RMK A01 T01340042  RH  054%=      5-min Rain = 0
KME1 171546Z 29005KT 13/04 A3009 RMK A01 T01340042  RH  054%=      5-min Rain = 0
KME1 171547Z 30008KT 13/04 A3009 RMK A01 T01340042  RH  054%=      5-min Rain = 0
KME1 171548Z 31009KT 13/04 A301 RMK A01 T01340042  RH  054%=      5-min Rain = 0
KME1 171549Z 32005KT 13/04 A301 RMK A01 T01330041  RH  054%=      5-min Rain = 0
KME1 171550Z 33009KT 13/04 A301 RMK A01 T01330041  RH  054%=      5-min Rain = 0
KME1 171551Z 33008KT 13/04 A301 RMK A01 T01320041  RH  054%=      5-min Rain = 0
KME1 171552Z 33006KT 13/04 A301 RMK A01 T01320041  RH  054%=      5-min Rain = 0
KME1 171553Z 32006KT 13/04 A301 RMK A01 T01330042  RH  054%=      5-min Rain = 0
KME1 171554Z 33008KT 13/04 A301 RMK A01 T01340043  RH  054%=      5-min Rain = 0
KME1 171555Z 32009KT 14/04 A301 RMK A01 T01360042  RH  053%=      5-min Rain = 0
KME1 171556Z 33006KT 13/04 A301 RMK A01 T01340042  RH  054%=      5-min Rain = 0
KME1 171557Z 32006KT 13/04 A301 RMK A01 T01340042  RH  054%=      5-min Rain = 0
KME1 171558Z 33006KT 13/04 A3009 RMK A01 T01340042  RH  053%=      5-min Rain = 0
KME1 171559Z 34007KT 14/04 A301 RMK A01 T01360044  RH  054%=      5-min Rain = 0
KME1 171600Z 33007KT 14/04 A301 RMK A01 T01380044  RH  053%=      5-min Rain = 0
KME1 171601Z 34005KT 14/04 A301 RMK A01 T01380043  RH  053%=      5-min Rain = 0
KME1 171602Z 35005KT 14/05 A301 RMK A01 T01390045  RH  053%=      5-min Rain = 0
KME1 171603Z 33006KT 14/04 A301 RMK A01 T01400043  RH  052%=      5-min Rain = 0
KME1 171604Z 32007KT 14/04 A301 RMK A01 T01390043  RH  052%=      5-min Rain = 0
KME1 171605Z 34008KT 14/04 A3009 RMK A01 T01390044  RH  053%=      5-min Rain = 0
KME1 171606Z 34009KT 14/04 A301 RMK A01 T01390044  RH  053%=      5-min Rain = 0
KME1 171607Z 34009KT 14/04 A301 RMK A01 T01400044  RH  052%=      5-min Rain = 0
KME1 171608Z 35008KT 14/04 A301 RMK A01 T01400044  RH  052%=      5-min Rain = 0
KME1 171609Z 36008KT 14/05 A301 RMK A01 T01410045  RH  052%=      5-min Rain = 0
KME1 171610Z 34009KT 14/04 A301 RMK A01 T01410044  RH  052%=      5-min Rain = 0
KME1 171611Z 34009KT 14/04 A301 RMK A01 T01400044  RH  052%=      5-min Rain = 0
KME1 171612Z 34006KT 14/04 A3009 RMK A01 T01400044  RH  052%=      5-min Rain = 0
KME1 171613Z 35008KT 14/05 A3009 RMK A01 T01410045  RH  052%=      5-min Rain = 0
KME1 171614Z 35010KT 14/05 A3009 RMK A01 T01440047  RH  052%=      5-min Rain = 0
KME1 171615Z 34010KT 15/05 A3009 RMK A01 T01460047  RH  052%=      5-min Rain = 0
KME1 171616Z 35012KT 15/05 A3009 RMK A01 T01470047  RH  051%=      5-min Rain = 0
KME1 171617Z 35012KT 15/05 A3009 RMK A01 T01460045  RH  051%=      5-min Rain = 0
KME1 171618Z 35014KT 14/05 A3009 RMK A01 T01440045  RH  051%=      5-min Rain = 0
KME1 171619Z 35011KT 14/05 A3009 RMK A01 T01430046  RH  052%=      5-min Rain = 0
KME1 171620Z 35011KT 14/05 A3009 RMK A01 T01440046  RH  052%=      5-min Rain = 0
KME1 171621Z 01010KT 15/05 A301 RMK A01 T01450046  RH  052%=      5-min Rain = 0
KME1 171622Z 01010KT 15/05 A3009 RMK A01 T01460047  RH  051%=      5-min Rain = 0
KME1 171623Z 35012KT 15/05 A301 RMK A01 T01470047  RH  051%=      5-min Rain = 0
KME1 171624Z 35009KT 15/05 A3009 RMK A01 T01460046  RH  051%=      5-min Rain = 0
KME1 171625Z 00011KT 15/05 A301 RMK A01 T01460047  RH  051%=      5-min Rain = 0
KME1 171626Z 00009KT 15/05 A301 RMK A01 T01460046  RH  051%=      5-min Rain = 0
KME1 171627Z 01013KT 15/05 A301 RMK A01 T01480048  RH  051%=      5-min Rain = 0
KME1 171628Z 01016KT 15/05 A301 RMK A01 T01480048  RH  051%=      5-min Rain = 0
KME1 171629Z 35014KT 15/05 A301 RMK A01 T01470047  RH  051%=      5-min Rain = 0
KME1 171630Z 35012KT 15/05 A301 RMK A01 T01450046  RH  051%=      5-min Rain = 0
KME1 171631Z 00011KT 15/05 A301 RMK A01 T01450047  RH  052%=      5-min Rain = 0
KME1 171632Z 00013KT 15/05 A301 RMK A01 T01460047  RH  052%=      5-min Rain = 0
KME1 171633Z 36013KT 15/05 A301 RMK A01 T01450046  RH  051%=      5-min Rain = 0
KME1 171634Z 35012KT 14/05 A301 RMK A01 T01430045  RH  052%=      5-min Rain = 0
KME1 171635Z 35011KT 14/05 A301 RMK A01 T01420046  RH  052%=      5-min Rain = 0
KME1 171636Z 00010KT 14/05 A301 RMK A01 T01430047  RH  053%=      5-min Rain = 0
KME1 171637Z 00010KT 15/05 A301 RMK A01 T01450048  RH  052%=      5-min Rain = 0
KME1 171638Z 01008G16KT 15/05 A301 RMK A01 T01470050  RH  052%=      5-min Rain = 0
KME1 171639Z 01017KT 15/05 A301 RMK A01 T01510051  RH  051%=      5-min Rain = 0
KME1 171640Z 01015KT 15/05 A301 RMK A01 T01500049  RH  051%=      5-min Rain = 0
KME1 171641Z 01014KT 15/05 A301 RMK A01 T01470048  RH  051%=      5-min Rain = 0
KME1 171642Z 01015KT 15/05 A301 RMK A01 T01460048  RH  052%=      5-min Rain = 0
KME1 171643Z 00012KT 15/05 A301 RMK A01 T01470049  RH  052%=      5-min Rain = 0
KME1 171644Z 02012KT 15/05 A301 RMK A01 T01470049  RH  052%=      5-min Rain = 0
KME1 171645Z 01014KT 15/05 A301 RMK A01 T01480050  RH  052%=      5-min Rain = 0
KME1 171646Z 35011KT 15/05 A301 RMK A01 T01500051  RH  052%=      5-min Rain = 0
KME1 171647Z 35012KT 15/05 A3011 RMK A01 T01520051  RH  051%=      5-min Rain = 0
KME1 171648Z 36011KT 15/05 A3011 RMK A01 T01520051  RH  051%=      5-min Rain = 0
KME1 171649Z 00009KT 15/05 A3011 RMK A01 T01520051  RH  051%=      5-min Rain = 0
KME1 171650Z 36010KT 15/05 A3011 RMK A01 T01540053  RH  051%=      5-min Rain = 0
KME1 171651Z 35014KT 16/05 A3011 RMK A01 T01550052  RH  050%=      5-min Rain = 0
KME1 171652Z 36011KT 15/05 A3011 RMK A01 T01540051  RH  050%=      5-min Rain = 0
KME1 171653Z 00008KT 15/05 A3011 RMK A01 T01520051  RH  051%=      5-min Rain = 0
KME1 171654Z 36011KT 15/05 A3011 RMK A01 T01520051  RH  051%=      5-min Rain = 0
KME1 171655Z 36010KT 15/05 A3011 RMK A01 T01530051  RH  051%=      5-min Rain = 0
KME1 171656Z 01009KT 15/05 A3011 RMK A01 T01530051  RH  050%=      5-min Rain = 0
KME1 171657Z 02007KT 15/05 A3011 RMK A01 T01520051  RH  051%=      5-min Rain = 0
KME1 171658Z 01010KT 15/05 A3011 RMK A01 T01540052  RH  051%=      5-min Rain = 0
KME1 171659Z 02010KT 15/05 A3011 RMK A01 T01540052  RH  051%=      5-min Rain = 0
KME1 171700Z 00011KT 15/05 A3011 RMK A01 T01540052  RH  051%=      5-min Rain = 0
KME1 171701Z 35012KT 15/05 A3011 RMK A01 T01540053  RH  051%=      5-min Rain = 0
KME1 171702Z 36011KT 16/05 A3011 RMK A01 T01550053  RH  050%=      5-min Rain = 0
KME1 171703Z 35011KT 16/05 A3011 RMK A01 T01570053  RH  050%=      5-min Rain = 0
KME1 171704Z 34009KT 16/05 A3011 RMK A01 T01560052  RH  050%=      5-min Rain = 0
KME1 171705Z 36010KT 15/05 A3011 RMK A01 T01540052  RH  051%=      5-min Rain = 0
KME1 171706Z 34010KT 16/05 A3011 RMK A01 T01550054  RH  051%=      5-min Rain = 0
KME1 171707Z 35008KT 16/06 A3011 RMK A01 T01580055  RH  050%=      5-min Rain = 0
KME1 171708Z 36005KT 16/06 A3011 RMK A01 T01600055  RH  050%=      5-min Rain = 0
KME1 171709Z 35007KT 16/06 A3011 RMK A01 T01610055  RH  049%=      5-min Rain = 0
KME1 171710Z 36009KT 16/06 A3011 RMK A01 T01610055  RH  049%=      5-min Rain = 0
KME1 171711Z 35010KT 16/05 A3011 RMK A01 T01610054  RH  049%=      5-min Rain = 0
KME1 171712Z 35008KT 16/05 A3011 RMK A01 T01590054  RH  050%=      5-min Rain = 0
KME1 171713Z 00009KT 16/06 A3011 RMK A01 T01610055  RH  050%=      5-min Rain = 0
KME1 171714Z 35012KT 16/06 A3011 RMK A01 T01620055  RH  049%=      5-min Rain = 0
KME1 171715Z 35012KT 16/06 A301 RMK A01 T01620055  RH  049%=      5-min Rain = 0
KME1 171716Z 36010KT 16/06 A301 RMK A01 T01620055  RH  049%=      5-min Rain = 0
KME1 171717Z 00013KT 16/06 A301 RMK A01 T01630055  RH  049%=      5-min Rain = 0
KME1 171718Z 36011KT 16/05 A301 RMK A01 T01620054  RH  049%=      5-min Rain = 0
KME1 171719Z 01009KT 16/06 A301 RMK A01 T01630056  RH  049%=      5-min Rain = 0
KME1 171720Z 01009KT 17/06 A301 RMK A01 T01650056  RH  048%=      5-min Rain = 0
KME1 171721Z 02012KT 17/06 A301 RMK A01 T01660056  RH  048%=      5-min Rain = 0
KME1 171722Z 01011KT 17/06 A301 RMK A01 T01660055  RH  048%=      5-min Rain = 0
KME1 171723Z 36012KT 17/06 A301 RMK A01 T01660055  RH  048%=      5-min Rain = 0
KME1 171724Z 36012KT 17/06 A301 RMK A01 T01650055  RH  048%=      5-min Rain = 0
KME1 171725Z 35011KT 16/05 A301 RMK A01 T01640053  RH  048%=      5-min Rain = 0
KME1 171726Z 36011KT 16/05 A301 RMK A01 T01620053  RH  048%=      5-min Rain = 0
KME1 171727Z 01009KT 16/05 A301 RMK A01 T01620054  RH  049%=      5-min Rain = 0
KME1 171728Z 34009KT 16/06 A301 RMK A01 T01640055  RH  048%=      5-min Rain = 0
KME1 171729Z 36008KT 16/05 A301 RMK A01 T01620053  RH  048%=      5-min Rain = 0
KME1 171730Z 36012KT 16/05 A301 RMK A01 T01620053  RH  049%=      5-min Rain = 0
KME1 171731Z 34011KT 16/05 A301 RMK A01 T01620053  RH  049%=      5-min Rain = 0
KME1 171732Z 34010KT 16/05 A301 RMK A01 T01620053  RH  048%=      5-min Rain = 0
KME1 171733Z 34011KT 16/05 A301 RMK A01 T01620053  RH  048%=      5-min Rain = 0
KME1 171734Z 36013KT 16/05 A301 RMK A01 T01620053  RH  048%=      5-min Rain = 0
KME1 171735Z 00010G15KT 16/05 A301 RMK A01 T01630053  RH  048%=      5-min Rain = 0
KME1 171736Z 36013KT 16/05 A3011 RMK A01 T01620053  RH  048%=      5-min Rain = 0
KME1 171737Z 36010KT 16/05 A301 RMK A01 T01620052  RH  048%=      5-min Rain = 0
KME1 171738Z 34008KT 16/05 A301 RMK A01 T01630052  RH  048%=      5-min Rain = 0
KME1 171739Z 34006KT 16/05 A301 RMK A01 T01640052  RH  048%=      5-min Rain = 0
KME1 171740Z 01010KT 17/05 A301 RMK A01 T01650053  RH  047%=      5-min Rain = 0
KME1 171741Z 35009KT 17/05 A301 RMK A01 T01670052  RH  046%=      5-min Rain = 0
KME1 171742Z 34010KT 17/05 A301 RMK A01 T01660049  RH  046%=      5-min Rain = 0
KME1 171743Z 35012G18KT 16/05 A301 RMK A01 T01640047  RH  046%=      5-min Rain = 0
KME1 171744Z 36014KT 16/05 A301 RMK A01 T01620047  RH  047%=      5-min Rain = 0
KME1 171745Z 36013KT 16/05 A301 RMK A01 T01610047  RH  047%=      5-min Rain = 0
KME1 171746Z 01012KT 16/05 A301 RMK A01 T01610048  RH  047%=      5-min Rain = 0
KME1 171747Z 02010KT 16/05 A3011 RMK A01 T01640049  RH  047%=      5-min Rain = 0
KME1 171748Z 01012KT 17/05 A3011 RMK A01 T01650048  RH  046%=      5-min Rain = 0
KME1 171749Z 01013KT 16/05 A3011 RMK A01 T01640047  RH  046%=      5-min Rain = 0
KME1 171750Z 36009KT 16/05 A3011 RMK A01 T01630046  RH  046%=      5-min Rain = 0
KME1 171751Z 34010KT 16/05 A3011 RMK A01 T01620046  RH  046%=      5-min Rain = 0
KME1 171752Z 34008KT 16/04 A3011 RMK A01 T01600044  RH  046%=      5-min Rain = 0
KME1 171753Z 00009KT 16/04 A3011 RMK A01 T01580044  RH  047%=      5-min Rain = 0
KME1 171754Z 00010KT 16/05 A3011 RMK A01 T01590045  RH  047%=      5-min Rain = 0
KME1 171755Z 01010KT 16/05 A3011 RMK A01 T01620046  RH  046%=      5-min Rain = 0
KME1 171756Z 02009KT 16/05 A3011 RMK A01 T01630046  RH  046%=      5-min Rain = 0
KME1 171757Z 02008KT 16/05 A3011 RMK A01 T01630046  RH  046%=      5-min Rain = 0
KME1 171758Z 01011KT 16/05 A3011 RMK A01 T01640046  RH  045%=      5-min Rain = 0
KME1 171759Z 00009G14KT 16/05 A3011 RMK A01 T01640046  RH  045%=      5-min Rain = 0
KME1 171800Z 35011KT 17/04 A3011 RMK A01 T01650043  RH  044%=      5-min Rain = 0
KME1 171801Z 34010KT 16/04 A3011 RMK A01 T01630042  RH  045%=      5-min Rain = 0
KME1 171802Z 33009KT 16/04 A3011 RMK A01 T01630042  RH  045%=      5-min Rain = 0
KME1 171803Z 34010KT 16/04 A3011 RMK A01 T01620041  RH  044%=      5-min Rain = 0
KME1 171804Z 35013KT 16/04 A3011 RMK A01 T01630042  RH  044%=      5-min Rain = 0
KME1 171805Z 35014KT 16/04 A3011 RMK A01 T01640041  RH  044%=      5-min Rain = 0
KME1 171806Z 35013KT 17/04 A3011 RMK A01 T01650041  RH  044%=      5-min Rain = 0
KME1 171807Z 35012KT 17/04 A3011 RMK A01 T01650040  RH  043%=      5-min Rain = 0
KME1 171808Z 34011KT 17/04 A3011 RMK A01 T01660041  RH  043%=      5-min Rain = 0
KME1 171809Z 34009KT 17/04 A3011 RMK A01 T01660039  RH  043%=      5-min Rain = 0
KME1 171810Z 34011KT 16/04 A3011 RMK A01 T01640039  RH  043%=      5-min Rain = 0
KME1 171811Z 35011KT 17/04 A3011 RMK A01 T01650040  RH  043%=      5-min Rain = 0
KME1 171812Z 35010KT 17/04 A3011 RMK A01 T01660039  RH  043%=      5-min Rain = 0
KME1 171813Z 35008KT 17/04 A3011 RMK A01 T01660038  RH  043%=      5-min Rain = 0
KME1 171814Z 35009KT 17/04 A3011 RMK A01 T01660039  RH  043%=      5-min Rain = 0
KME1 171815Z 34009KT 17/04 A3011 RMK A01 T01680041  RH  043%=      5-min Rain = 0
KME1 171816Z 32010KT 17/04 A301 RMK A01 T01710042  RH  042%=      5-min Rain = 0
KME1 171817Z 35010KT 17/04 A301 RMK A01 T01720041  RH  042%=      5-min Rain = 0
KME1 171818Z 35012G17KT 17/04 A301 RMK A01 T01720039  RH  041%=      5-min Rain = 0
KME1 171819Z 34013KT 17/04 A301 RMK A01 T01710038  RH  041%=      5-min Rain = 0
KME1 171820Z 36013KT 17/04 A301 RMK A01 T01690036  RH  041%=      5-min Rain = 0
KME1 171821Z 36009KT 17/04 A301 RMK A01 T01670037  RH  042%=      5-min Rain = 0
KME1 171822Z 35010KT 17/04 A301 RMK A01 T01690038  RH  042%=      5-min Rain = 0
KME1 171823Z 00006KT 17/04 A301 RMK A01 T01700037  RH  041%=      5-min Rain = 0
KME1 171824Z 35006KT 17/04 A301 RMK A01 T01710038  RH  041%=      5-min Rain = 0
KME1 171825Z 35009KT 17/04 A3009 RMK A01 T01710038  RH  041%=      5-min Rain = 0
KME1 171826Z 34008KT 17/04 A3009 RMK A01 T01720038  RH  041%=      5-min Rain = 0
KME1 171827Z 00013KT 17/04 A3009 RMK A01 T01730039  RH  041%=      5-min Rain = 0
KME1 171828Z 02011KT 17/04 A301 RMK A01 T01740039  RH  041%=      5-min Rain = 0
KME1 171829Z 03011KT 17/04 A3009 RMK A01 T01730038  RH  041%=      5-min Rain = 0
KME1 171830Z 02012KT 17/04 A3009 RMK A01 T01720039  RH  041%=      5-min Rain = 0
KME1 171831Z 01009KT 17/04 A3009 RMK A01 T01730040  RH  041%=      5-min Rain = 0
KME1 171832Z 01008KT 17/04 A3009 RMK A01 T01730038  RH  040%=      5-min Rain = 0
KME1 171833Z 00009KT 17/04 A3009 RMK A01 T01720037  RH  041%=      5-min Rain = 0
KME1 171834Z 02012G17KT 17/04 A3009 RMK A01 T01710037  RH  041%=      5-min Rain = 0
KME1 171835Z 02009KT 17/04 A3009 RMK A01 T01710038  RH  041%=      5-min Rain = 0
KME1 171836Z 36008KT 17/04 A3009 RMK A01 T01720038  RH  041%=      5-min Rain = 0
KME1 171837Z 00009KT 17/04 A3009 RMK A01 T01730036  RH  040%=      5-min Rain = 0
KME1 171838Z 00008KT 17/03 A3009 RMK A01 T01710034  RH  040%=      5-min Rain = 0
KME1 171839Z 35008KT 17/04 A3009 RMK A01 T01690036  RH  041%=      5-min Rain = 0
KME1 171840Z 00009KT 17/04 A3009 RMK A01 T01710036  RH  041%=      5-min Rain = 0
KME1 171841Z 00007KT 17/04 A3009 RMK A01 T01720037  RH  040%=      5-min Rain = 0
KME1 171842Z 34007KT 17/04 A3009 RMK A01 T01740037  RH  040%=      5-min Rain = 0
KME1 171843Z 35008KT 18/04 A3009 RMK A01 T01750038  RH  040%=      5-min Rain = 0
KME1 171844Z 35009G14KT 18/04 A3009 RMK A01 T01760038  RH  040%=      5-min Rain = 0
KME1 171845Z 36010KT 18/04 A3009 RMK A01 T01790041  RH  040%=      5-min Rain = 0
KME1 171846Z 02012KT 18/04 A3009 RMK A01 T01820041  RH  039%=      5-min Rain = 0
KME1 171847Z 03010KT 18/04 A3009 RMK A01 T01820039  RH  039%=      5-min Rain = 0
KME1 171848Z 00007KT 18/04 A3009 RMK A01 T01780035  RH  039%=      5-min Rain = 0
KME1 171849Z 34007KT 18/04 A3009 RMK A01 T01750036  RH  039%=      5-min Rain = 0
KME1 171850Z 35008KT 18/04 A3009 RMK A01 T01750036  RH  040%=      5-min Rain = 0
KME1 171851Z 36008G13KT 18/04 A3009 RMK A01 T01760038  RH  040%=      5-min Rain = 0
KME1 171852Z 00011KT 18/04 A3009 RMK A01 T01790038  RH  039%=      5-min Rain = 0
KME1 171853Z 01009KT 18/04 A3009 RMK A01 T01790037  RH  039%=      5-min Rain = 0
KME1 171854Z 00008KT 18/04 A3008 RMK A01 T01780037  RH  039%=      5-min Rain = 0
KME1 171855Z 03009KT 18/04 A3008 RMK A01 T01800040  RH  039%=      5-min Rain = 0
KME1 171856Z 02011KT 18/04 A3008 RMK A01 T01830040  RH  039%=      5-min Rain = 0
KME1 171857Z 01010KT 18/04 A3008 RMK A01 T01830038  RH  038%=      5-min Rain = 0
KME1 171858Z 02006KT 18/04 A3008 RMK A01 T01800035  RH  038%=      5-min Rain = 0
KME1 171859Z 35007KT 18/04 A3008 RMK A01 T01780036  RH  039%=      5-min Rain = 0
KME1 171900Z 00006KT 18/04 A3008 RMK A01 T01770036  RH  039%=      5-min Rain = 0
KME1 171901Z 33005KT 18/04 A3008 RMK A01 T01770036  RH  039%=      5-min Rain = 0
KME1 171902Z 35003KT 18/04 A3008 RMK A01 T01780036  RH  039%=      5-min Rain = 0
KME1 171903Z 33005KT 18/04 A3008 RMK A01 T01770037  RH  039%=      5-min Rain = 0
KME1 171904Z 33007KT 18/04 A3008 RMK A01 T01780037  RH  039%=      5-min Rain = 0
KME1 171905Z 33009KT 18/04 A3008 RMK A01 T01790038  RH  039%=      5-min Rain = 0
KME1 171906Z 34009KT 18/04 A3008 RMK A01 T01800036  RH  039%=      5-min Rain = 0
KME1 171907Z 35007KT 18/04 A3008 RMK A01 T01770036  RH  039%=      5-min Rain = 0
KME1 171908Z 35008KT 18/04 A3008 RMK A01 T01770038  RH  039%=      5-min Rain = 0
KME1 171909Z 34012KT 18/04 A3008 RMK A01 T01800039  RH  039%=      5-min Rain = 0
KME1 171910Z 34010KT 18/04 A3008 RMK A01 T01820038  RH  038%=      5-min Rain = 0
KME1 171911Z 36008KT 18/04 A3008 RMK A01 T01810039  RH  039%=      5-min Rain = 0
KME1 171912Z 00014KT 18/04 A3008 RMK A01 T01830038  RH  038%=      5-min Rain = 0
KME1 171913Z 35012KT 18/04 A3008 RMK A01 T01810036  RH  038%=      5-min Rain = 0
KME1 171914Z 35011KT 18/04 A3008 RMK A01 T01790036  RH  039%=      5-min Rain = 0
KME1 171915Z 35010KT 18/04 A3009 RMK A01 T01770036  RH  039%=      5-min Rain = 0
KME1 171916Z 36007KT 18/04 A3008 RMK A01 T01780036  RH  039%=      5-min Rain = 0
KME1 171917Z 34007KT 18/04 A3008 RMK A01 T01780035  RH  039%=      5-min Rain = 0
KME1 171918Z 35007KT 18/04 A3008 RMK A01 T01770036  RH  039%=      5-min Rain = 0
KME1 171919Z 35006KT 18/04 A3008 RMK A01 T01770037  RH  039%=      5-min Rain = 0
KME1 171920Z 35008KT 18/04 A3008 RMK A01 T01790036  RH  039%=      5-min Rain = 0
KME1 171921Z 35009KT 18/04 A3007 RMK A01 T01810039  RH  039%=      5-min Rain = 0
KME1 171922Z 36009KT 19/04 A3007 RMK A01 T01860040  RH  038%=      5-min Rain = 0
KME1 171923Z 35012KT 19/04 A3007 RMK A01 T01870038  RH  037%=      5-min Rain = 0
KME1 171924Z 34012G18KT 19/04 A3007 RMK A01 T01860039  RH  037%=      5-min Rain = 0
KME1 171925Z 00011KT 19/04 A3008 RMK A01 T01860038  RH  037%=      5-min Rain = 0
KME1 171926Z 35010KT 19/04 A3007 RMK A01 T01860038  RH  038%=      5-min Rain = 0
KME1 171927Z 36010KT 19/04 A3007 RMK A01 T01860038  RH  037%=      5-min Rain = 0
KME1 171928Z 35008KT 18/04 A3007 RMK A01 T01840036  RH  037%=      5-min Rain = 0
KME1 171929Z 33005KT 18/04 A3007 RMK A01 T01820037  RH  038%=      5-min Rain = 0
KME1 171930Z 36008KT 18/04 A3007 RMK A01 T01840038  RH  038%=      5-min Rain = 0
KME1 171931Z 34010KT 19/04 A3007 RMK A01 T01850038  RH  037%=      5-min Rain = 0
KME1 171932Z 00010G18KT 19/04 A3007 RMK A01 T01850037  RH  037%=      5-min Rain = 0
KME1 171933Z 36011G17KT 18/04 A3007 RMK A01 T01840037  RH  038%=      5-min Rain = 0
KME1 171934Z 36014KT 18/04 A3007 RMK A01 T01840037  RH  038%=      5-min Rain = 0
KME1 171935Z 35011KT 18/04 A3007 RMK A01 T01840037  RH  038%=      5-min Rain = 0
KME1 171936Z 35008KT 18/04 A3007 RMK A01 T01840036  RH  037%=      5-min Rain = 0
KME1 171937Z 36011KT 18/04 A3007 RMK A01 T01830036  RH  038%=      5-min Rain = 0
KME1 171938Z 36013KT 18/04 A3007 RMK A01 T01820036  RH  038%=      5-min Rain = 0
KME1 171939Z 35012KT 18/04 A3007 RMK A01 T01800036  RH  038%=      5-min Rain = 0
KME1 171940Z 35010KT 18/04 A3007 RMK A01 T01800036  RH  038%=      5-min Rain = 0
KME1 171941Z 33009KT 18/04 A3007 RMK A01 T01790036  RH  039%=      5-min Rain = 0
KME1 171942Z 01012KT 18/04 A3007 RMK A01 T01800037  RH  039%=      5-min Rain = 0
KME1 171943Z 00011KT 18/04 A3007 RMK A01 T01800035  RH  038%=      5-min Rain = 0
KME1 171944Z 02012KT 18/04 A3006 RMK A01 T01780035  RH  039%=      5-min Rain = 0
KME1 171945Z 00014KT 18/04 A3007 RMK A01 T01780036  RH  039%=      5-min Rain = 0
KME1 171946Z 36011KT 18/04 A3007 RMK A01 T01780036  RH  039%=      5-min Rain = 0
KME1 171947Z 35010KT 18/04 A3007 RMK A01 T01790036  RH  039%=      5-min Rain = 0
KME1 171948Z 35009KT 18/04 A3006 RMK A01 T01800036  RH  038%=      5-min Rain = 0
KME1 171949Z 35010KT 18/04 A3006 RMK A01 T01800037  RH  038%=      5-min Rain = 0
KME1 171950Z 34009G14KT 18/04 A3006 RMK A01 T01820038  RH  038%=      5-min Rain = 0
KME1 171951Z 35011KT 18/04 A3006 RMK A01 T01830037  RH  038%=      5-min Rain = 0
KME1 171952Z 36013KT 18/04 A3007 RMK A01 T01840038  RH  038%=      5-min Rain = 0
KME1 171953Z 00010KT 18/04 A3007 RMK A01 T01830036  RH  037%=      5-min Rain = 0
KME1 171954Z 35009KT 18/04 A3007 RMK A01 T01820036  RH  038%=      5-min Rain = 0
KME1 171955Z 35009KT 18/04 A3007 RMK A01 T01810035  RH  038%=      5-min Rain = 0
KME1 171956Z 32007KT 18/03 A3007 RMK A01 T01810034  RH  038%=      5-min Rain = 0
KME1 171957Z 34009KT 18/03 A3006 RMK A01 T01800034  RH  038%=      5-min Rain = 0
KME1 171958Z 35009KT 18/04 A3006 RMK A01 T01810036  RH  038%=      5-min Rain = 0
KME1 171959Z 00009KT 18/04 A3006 RMK A01 T01840038  RH  038%=      5-min Rain = 0
KME1 172000Z 00013KT 19/04 A3006 RMK A01 T01880038  RH  037%=      5-min Rain = 0
KME1 172001Z 36013KT 19/04 A3006 RMK A01 T01870036  RH  037%=      5-min Rain = 0
KME1 172002Z 35009KT 18/03 A3006 RMK A01 T01840034  RH  037%=      5-min Rain = 0
KME1 172003Z 36007KT 18/04 A3006 RMK A01 T01830035  RH  037%=      5-min Rain = 0
KME1 172004Z 36011KT 18/04 A3006 RMK A01 T01840036  RH  037%=      5-min Rain = 0
KME1 172005Z 00011KT 19/04 A3006 RMK A01 T01860037  RH  037%=      5-min Rain = 0
KME1 172006Z 36010KT 19/04 A3006 RMK A01 T01870038  RH  037%=      5-min Rain = 0
KME1 172007Z 35012KT 19/04 A3006 RMK A01 T01900038  RH  037%=      5-min Rain = 0
KME1 172008Z 35011KT 19/04 A3006 RMK A01 T01910036  RH  036%=      5-min Rain = 0
KME1 172009Z 34011KT 19/04 A3006 RMK A01 T01890036  RH  036%=      5-min Rain = 0
KME1 172010Z 33010KT 19/03 A3006 RMK A01 T01860034  RH  036%=      5-min Rain = 0
KME1 172011Z 34009KT 18/03 A3006 RMK A01 T01820033  RH  037%=      5-min Rain = 0
KME1 172012Z 36009KT 18/03 A3005 RMK A01 T01800033  RH  038%=      5-min Rain = 0
KME1 172013Z 36010KT 18/04 A3005 RMK A01 T01800035  RH  038%=      5-min Rain = 0
KME1 172014Z 35009KT 18/04 A3005 RMK A01 T01830036  RH  038%=      5-min Rain = 0
KME1 172015Z 33008KT 18/04 A3005 RMK A01 T01840035  RH  037%=      5-min Rain = 0
KME1 172016Z 33009KT 18/04 A3005 RMK A01 T01840035  RH  037%=      5-min Rain = 0
KME1 172017Z 34011KT 19/04 A3005 RMK A01 T01850036  RH  037%=      5-min Rain = 0
KME1 172018Z 00012KT 19/04 A3005 RMK A01 T01870037  RH  037%=      5-min Rain = 0
KME1 172019Z 35012KT 19/04 A3005 RMK A01 T01900037  RH  036%=      5-min Rain = 0
KME1 172020Z 34010KT 19/04 A3005 RMK A01 T01900036  RH  036%=      5-min Rain = 0
KME1 172021Z 01012KT 19/04 A3005 RMK A01 T01890037  RH  036%=      5-min Rain = 0
KME1 172022Z 01012KT 19/04 A3005 RMK A01 T01900036  RH  036%=      5-min Rain = 0
KME1 172023Z 03010KT 19/04 A3005 RMK A01 T01880035  RH  036%=      5-min Rain = 0
KME1 172024Z 01010G15KT 19/04 A3005 RMK A01 T01880036  RH  037%=      5-min Rain = 0
KME1 172025Z 36012KT 19/04 A3006 RMK A01 T01900037  RH  036%=      5-min Rain = 0
KME1 172026Z 00009KT 19/04 A3006 RMK A01 T01900036  RH  036%=      5-min Rain = 0
KME1 172027Z 36008KT 19/04 A3006 RMK A01 T01890036  RH  036%=      5-min Rain = 0
KME1 172028Z 01011KT 19/04 A3006 RMK A01 T01870035  RH  036%=      5-min Rain = 0
KME1 172029Z 36014KT 19/04 A3005 RMK A01 T01860035  RH  037%=      5-min Rain = 0
KME1 172030Z 36011KT 18/03 A3005 RMK A01 T01840034  RH  037%=      5-min Rain = 0
KME1 172031Z 36012KT 18/04 A3005 RMK A01 T01840035  RH  037%=      5-min Rain = 0
KME1 172032Z 35010KT 19/04 A3005 RMK A01 T01870036  RH  037%=      5-min Rain = 0
KME1 172033Z 35010KT 19/04 A3005 RMK A01 T01880036  RH  036%=      5-min Rain = 0
KME1 172034Z 36008KT 19/04 A3005 RMK A01 T01890035  RH  036%=      5-min Rain = 0
KME1 172035Z 33008KT 19/04 A3005 RMK A01 T01880036  RH  036%=      5-min Rain = 0
KME1 172036Z 32006KT 19/04 A3005 RMK A01 T01890035  RH  036%=      5-min Rain = 0
KME1 172037Z 34005KT 19/04 A3006 RMK A01 T01900037  RH  036%=      5-min Rain = 0
KME1 172038Z 34009KT 19/04 A3006 RMK A01 T01910036  RH  036%=      5-min Rain = 0
KME1 172039Z 01010KT 19/04 A3006 RMK A01 T01900035  RH  036%=      5-min Rain = 0
KME1 172040Z 02013KT 19/04 A3006 RMK A01 T01890036  RH  036%=      5-min Rain = 0
KME1 172041Z 01012KT 19/04 A3006 RMK A01 T01890035  RH  036%=      5-min Rain = 0
KME1 172042Z 36010KT 19/04 A3006 RMK A01 T01880035  RH  036%=      5-min Rain = 0
KME1 172043Z 35012KT 19/04 A3006 RMK A01 T01890035  RH  036%=      5-min Rain = 0
KME1 172044Z 01013KT 19/04 A3006 RMK A01 T01890035  RH  036%=      5-min Rain = 0
KME1 172045Z 36010KT 19/03 A3006 RMK A01 T01890034  RH  036%=      5-min Rain = 0
KME1 172046Z 36007KT 19/03 A3006 RMK A01 T01870034  RH  036%=      5-min Rain = 0
KME1 172047Z 35013KT 19/04 A3006 RMK A01 T01870036  RH  037%=      5-min Rain = 0
KME1 172048Z 36010KT 19/04 A3006 RMK A01 T01880035  RH  036%=      5-min Rain = 0
KME1 172049Z 00010KT 19/04 A3006 RMK A01 T01870035  RH  036%=      5-min Rain = 0
KME1 172050Z 36009KT 19/04 A3006 RMK A01 T01880036  RH  036%=      5-min Rain = 0
KME1 172051Z 36010KT 19/04 A3006 RMK A01 T01910036  RH  036%=      5-min Rain = 0
KME1 172052Z 34012KT 19/04 A3006 RMK A01 T01930036  RH  035%=      5-min Rain = 0
KME1 172053Z 35009KT 19/04 A3006 RMK A01 T01920035  RH  035%=      5-min Rain = 0
KME1 172054Z 34010KT 19/04 A3006 RMK A01 T01920036  RH  036%=      5-min Rain = 0
KME1 172055Z 35008KT 19/04 A3006 RMK A01 T01920035  RH  035%=      5-min Rain = 0
KME1 172056Z 34008KT 19/04 A3006 RMK A01 T01910035  RH  035%=      5-min Rain = 0
KME1 172057Z 35008KT 19/04 A3006 RMK A01 T01910035  RH  036%=      5-min Rain = 0
KME1 172058Z 33004KT 19/04 A3006 RMK A01 T01910035  RH  035%=      5-min Rain = 0
KME1 172059Z 35009G14KT 19/04 A3006 RMK A01 T01910036  RH  036%=      5-min Rain = 0
KME1 172100Z 35008KT 19/04 A3006 RMK A01 T01920035  RH  035%=      5-min Rain = 0
KME1 172101Z 36011KT 19/04 A3006 RMK A01 T01920036  RH  035%=      5-min Rain = 0
KME1 172102Z 01010KT 19/04 A3006 RMK A01 T01940036  RH  035%=      5-min Rain = 0
KME1 172103Z 01008KT 19/03 A3006 RMK A01 T01920034  RH  035%=      5-min Rain = 0
KME1 172104Z 01006KT 19/04 A3006 RMK A01 T01910035  RH  035%=      5-min Rain = 0
KME1 172105Z 34009KT 19/04 A3006 RMK A01 T01900035  RH  036%=      5-min Rain = 0
KME1 172106Z 32008KT 19/04 A3006 RMK A01 T01900035  RH  036%=      5-min Rain = 0
KME1 172107Z 33007KT 19/04 A3006 RMK A01 T01910036  RH  036%=      5-min Rain = 0
KME1 172108Z 35009KT 19/04 A3006 RMK A01 T01920035  RH  035%=      5-min Rain = 0
KME1 172109Z 34011KT 19/04 A3006 RMK A01 T01920035  RH  035%=      5-min Rain = 0
KME1 172110Z 35012KT 19/04 A3006 RMK A01 T01910035  RH  035%=      5-min Rain = 0
KME1 172111Z 35009KT 19/03 A3006 RMK A01 T01890034  RH  036%=      5-min Rain = 0
KME1 172112Z 33005KT 19/04 A3006 RMK A01 T01890035  RH  036%=      5-min Rain = 0
KME1 172113Z 01009KT 19/04 A3006 RMK A01 T01910035  RH  036%=      5-min Rain = 0
KME1 172114Z 01009KT 19/04 A3006 RMK A01 T01910035  RH  035%=      5-min Rain = 0
KME1 172115Z 01010KT 19/04 A3006 RMK A01 T01910035  RH  036%=      5-min Rain = 0
KME1 172116Z 00011KT 19/03 A3006 RMK A01 T01900034  RH  035%=      5-min Rain = 0
KME1 172117Z 35008KT 19/03 A3006 RMK A01 T01890034  RH  036%=      5-min Rain = 0
KME1 172118Z 01006KT 19/03 A3006 RMK A01 T01880034  RH  036%=      5-min Rain = 0
KME1 172119Z 01009KT 19/04 A3006 RMK A01 T01890035  RH  036%=      5-min Rain = 0
KME1 172120Z 00011KT 19/04 A3006 RMK A01 T01920037  RH  036%=      5-min Rain = 0
KME1 172121Z 35010KT 19/04 A3006 RMK A01 T01930037  RH  035%=      5-min Rain = 0
KME1 172122Z 35010KT 19/04 A3006 RMK A01 T01940036  RH  035%=      5-min Rain = 0
KME1 172123Z 35011KT 19/04 A3006 RMK A01 T01930035  RH  035%=      5-min Rain = 0
KME1 172124Z 35010KT 19/04 A3006 RMK A01 T01920035  RH  035%=      5-min Rain = 0
KME1 172125Z 35009KT 19/04 A3006 RMK A01 T01920035  RH  035%=      5-min Rain = 0
KME1 172126Z 33009G14KT 19/04 A3006 RMK A01 T01920035  RH  035%=      5-min Rain = 0
KME1 172127Z 36012KT 19/04 A3006 RMK A01 T01920035  RH  035%=      5-min Rain = 0
KME1 172128Z 00012KT 19/04 A3006 RMK A01 T01920035  RH  035%=      5-min Rain = 0
KME1 172129Z 01011KT 19/03 A3006 RMK A01 T01910034  RH  035%=      5-min Rain = 0
KME1 172130Z 00010KT 19/03 A3006 RMK A01 T01900034  RH  035%=      5-min Rain = 0
KME1 172131Z 01009KT 19/03 A3006 RMK A01 T01890034  RH  036%=      5-min Rain = 0
KME1 172132Z 00011KT 19/04 A3006 RMK A01 T01900035  RH  036%=      5-min Rain = 0
KME1 172133Z 01010KT 19/03 A3006 RMK A01 T01890034  RH  036%=      5-min Rain = 0
KME1 172134Z 34008KT 19/03 A3006 RMK A01 T01880034  RH  036%=      5-min Rain = 0
KME1 172135Z 34008KT 19/04 A3006 RMK A01 T01890035  RH  036%=      5-min Rain = 0
KME1 172136Z 33006KT 19/03 A3006 RMK A01 T01890034  RH  036%=      5-min Rain = 0
KME1 172137Z 33008KT 19/03 A3006 RMK A01 T01900034  RH  035%=      5-min Rain = 0
KME1 172138Z 33009KT 19/03 A3006 RMK A01 T01890034  RH  036%=      5-min Rain = 0
KME1 172139Z 36010KT 19/04 A3006 RMK A01 T01890035  RH  036%=      5-min Rain = 0
KME1 172140Z 01009KT 19/04 A3006 RMK A01 T01890035  RH  036%=      5-min Rain = 0
KME1 172141Z 02008KT 19/04 A3006 RMK A01 T01890035  RH  036%=      5-min Rain = 0
KME1 172142Z 02010KT 19/04 A3006 RMK A01 T01900035  RH  036%=      5-min Rain = 0
KME1 172143Z 02009KT 19/03 A3006 RMK A01 T01890034  RH  036%=      5-min Rain = 0
KME1 172144Z 02009KT 19/03 A3006 RMK A01 T01890034  RH  036%=      5-min Rain = 0
KME1 172145Z 01010KT 19/04 A3006 RMK A01 T01880035  RH  036%=      5-min Rain = 0
KME1 172146Z 33007KT 19/04 A3006 RMK A01 T01890036  RH  036%=      5-min Rain = 0
KME1 172147Z 33008KT 19/04 A3006 RMK A01 T01900035  RH  036%=      5-min Rain = 0
KME1 172148Z 34006KT 19/04 A3006 RMK A01 T01910035  RH  036%=      5-min Rain = 0
KME1 172149Z 35008KT 19/04 A3006 RMK A01 T01910035  RH  036%=      5-min Rain = 0
KME1 172150Z 36010KT 19/04 A3006 RMK A01 T01910035  RH  036%=      5-min Rain = 0
KME1 172151Z 36009KT 19/03 A3006 RMK A01 T01910034  RH  035%=      5-min Rain = 0
KME1 172152Z 36010KT 19/03 A3006 RMK A01 T01890033  RH  035%=      5-min Rain = 0
KME1 172153Z 36008KT 19/03 A3006 RMK A01 T01890034  RH  036%=      5-min Rain = 0
KME1 172154Z 36010KT 19/03 A3006 RMK A01 T01890034  RH  036%=      5-min Rain = 0
KME1 172155Z 36009KT 19/04 A3006 RMK A01 T01900035  RH  036%=      5-min Rain = 0
KME1 172156Z 34008KT 19/04 A3006 RMK A01 T01900035  RH  036%=      5-min Rain = 0
KME1 172157Z 00008KT 19/04 A3006 RMK A01 T01900035  RH  036%=      5-min Rain = 0
KME1 172158Z 01009KT 19/04 A3006 RMK A01 T01900035  RH  036%=      5-min Rain = 0
KME1 172159Z 35009KT 19/03 A3006 RMK A01 T01900034  RH  036%=      5-min Rain = 0
KME1 172200Z 01008KT 19/03 A3006 RMK A01 T01890034  RH  036%=      5-min Rain = 0
KME1 172201Z 02010KT 19/03 A3006 RMK A01 T01890034  RH  036%=      5-min Rain = 0
KME1 172202Z 02009KT 19/03 A3007 RMK A01 T01880034  RH  036%=      5-min Rain = 0
KME1 172203Z 02011KT 19/03 A3007 RMK A01 T01870034  RH  036%=      5-min Rain = 0
KME1 172204Z 01010KT 19/03 A3007 RMK A01 T01870034  RH  036%=      5-min Rain = 0
KME1 172205Z 35010KT 19/03 A3007 RMK A01 T01870034  RH  036%=      5-min Rain = 0
KME1 172206Z 01011KT 19/03 A3007 RMK A01 T01870034  RH  036%=      5-min Rain = 0
KME1 172207Z 01012KT 19/04 A3007 RMK A01 T01870035  RH  036%=      5-min Rain = 0
KME1 172208Z 01013KT 19/03 A3007 RMK A01 T01860034  RH  036%=      5-min Rain = 0
KME1 172209Z 36011KT 19/03 A3007 RMK A01 T01860034  RH  036%=      5-min Rain = 0
KME1 172210Z 00009KT 19/03 A3007 RMK A01 T01850033  RH  036%=      5-min Rain = 0
KME1 172211Z 36006KT 19/03 A3007 RMK A01 T01850034  RH  037%=      5-min Rain = 0
KME1 172212Z 00008KT 19/03 A3007 RMK A01 T01850034  RH  037%=      5-min Rain = 0
KME1 172213Z 02010KT 19/04 A3007 RMK A01 T01860035  RH  037%=      5-min Rain = 0
KME1 172214Z 02009KT 19/03 A3007 RMK A01 T01860034  RH  036%=      5-min Rain = 0
KME1 172215Z 01008KT 19/03 A3007 RMK A01 T01860034  RH  036%=      5-min Rain = 0
KME1 172216Z 01006KT 19/03 A3007 RMK A01 T01860034  RH  036%=      5-min Rain = 0
KME1 172217Z 36010KT 19/03 A3007 RMK A01 T01860034  RH  036%=      5-min Rain = 0
KME1 172218Z 35010KT 19/03 A3007 RMK A01 T01860034  RH  036%=      5-min Rain = 0
KME1 172219Z 36011KT 19/03 A3007 RMK A01 T01860034  RH  036%=      5-min Rain = 0
KME1 172220Z 00010KT 19/03 A3007 RMK A01 T01860034  RH  036%=      5-min Rain = 0
KME1 172221Z 36010KT 19/03 A3007 RMK A01 T01850034  RH  036%=      5-min Rain = 0
KME1 172222Z 00010KT 19/03 A3007 RMK A01 T01850033  RH  036%=      5-min Rain = 0
KME1 172223Z 36010KT 18/03 A3007 RMK A01 T01840033  RH  036%=      5-min Rain = 0
KME1 172224Z 35010KT 18/03 A3007 RMK A01 T01840033  RH  037%=      5-min Rain = 0
KME1 172225Z 01009KT 18/03 A3007 RMK A01 T01840034  RH  037%=      5-min Rain = 0
KME1 172226Z 01010KT 18/03 A3007 RMK A01 T01840033  RH  037%=      5-min Rain = 0
KME1 172227Z 01009KT 18/03 A3007 RMK A01 T01830032  RH  037%=      5-min Rain = 0
KME1 172228Z 36007KT 18/03 A3007 RMK A01 T01820032  RH  037%=      5-min Rain = 0
KME1 172229Z 35008KT 18/03 A3007 RMK A01 T01820032  RH  037%=      5-min Rain = 0
KME1 172230Z 36006KT 18/03 A3007 RMK A01 T01820032  RH  037%=      5-min Rain = 0
KME1 172231Z 00009KT 18/03 A3007 RMK A01 T01830032  RH  037%=      5-min Rain = 0
KME1 172232Z 00007KT 18/03 A3007 RMK A01 T01820031  RH  037%=      5-min Rain = 0
KME1 172233Z 36006KT 18/03 A3007 RMK A01 T01820032  RH  037%=      5-min Rain = 0
KME1 172234Z 34007KT 18/03 A3007 RMK A01 T01820032  RH  037%=      5-min Rain = 0
KME1 172235Z 34009KT 18/03 A3007 RMK A01 T01820032  RH  037%=      5-min Rain = 0
KME1 172236Z 34007KT 18/03 A3007 RMK A01 T01830032  RH  037%=      5-min Rain = 0
KME1 172237Z 36009KT 18/03 A3007 RMK A01 T01820033  RH  037%=      5-min Rain = 0
KME1 172238Z 00009KT 18/03 A3007 RMK A01 T01820032  RH  037%=      5-min Rain = 0
KME1 172239Z 00006KT 18/03 A3007 RMK A01 T01810032  RH  037%=      5-min Rain = 0
KME1 172240Z 02006KT 18/03 A3007 RMK A01 T01810032  RH  037%=      5-min Rain = 0
KME1 172241Z 00008KT 18/03 A3007 RMK A01 T01810033  RH  037%=      5-min Rain = 0
KME1 172242Z 36009KT 18/03 A3007 RMK A01 T01810032  RH  037%=      5-min Rain = 0
KME1 172243Z 36007KT 18/03 A3007 RMK A01 T01800032  RH  037%=      5-min Rain = 0
KME1 172244Z 36007KT 18/03 A3007 RMK A01 T01800032  RH  037%=      5-min Rain = 0
KME1 172245Z 35007KT 18/03 A3007 RMK A01 T01800031  RH  037%=      5-min Rain = 0
KME1 172246Z 36005KT 18/03 A3008 RMK A01 T01790031  RH  037%=      5-min Rain = 0
KME1 172247Z 00006KT 18/03 A3008 RMK A01 T01790031  RH  037%=      5-min Rain = 0
KME1 172248Z 01006KT 18/03 A3008 RMK A01 T01790031  RH  037%=      5-min Rain = 0
KME1 172249Z 01004KT 18/03 A3008 RMK A01 T01780032  RH  037%=      5-min Rain = 0
KME1 172250Z 35003KT 18/03 A3008 RMK A01 T01780032  RH  038%=      5-min Rain = 0
KME1 172251Z 00003KT 18/03 A3008 RMK A01 T01780032  RH  038%=      5-min Rain = 0
KME1 172252Z 35004KT 18/03 A3008 RMK A01 T01780033  RH  038%=      5-min Rain = 0
KME1 172253Z 35007KT 18/03 A3008 RMK A01 T01780033  RH  038%=      5-min Rain = 0
KME1 172254Z 00010KT 18/03 A3008 RMK A01 T01780031  RH  038%=      5-min Rain = 0
KME1 172255Z 35007KT 18/03 A3008 RMK A01 T01770030  RH  038%=      5-min Rain = 0
KME1 172256Z 36007KT 18/03 A3008 RMK A01 T01760031  RH  038%=      5-min Rain = 0
KME1 172257Z 36008KT 18/03 A3008 RMK A01 T01750031  RH  038%=      5-min Rain = 0
KME1 172258Z 35007KT 18/03 A3008 RMK A01 T01750031  RH  038%=      5-min Rain = 0
KME1 172259Z 00007KT 17/03 A3008 RMK A01 T01740031  RH  038%=      5-min Rain = 0
KME1 172300Z 01008KT 17/03 A3008 RMK A01 T01740031  RH  038%=      5-min Rain = 0
KME1 172301Z 01007KT 17/03 A3008 RMK A01 T01730030  RH  038%=      5-min Rain = 0
KME1 172302Z 36006KT 17/03 A3008 RMK A01 T01730031  RH  039%=      5-min Rain = 0
KME1 172303Z 00005KT 17/03 A3008 RMK A01 T01730031  RH  039%=      5-min Rain = 0
KME1 172304Z 00007KT 17/03 A3008 RMK A01 T01720031  RH  039%=      5-min Rain = 0
KME1 172305Z 01006KT 17/03 A3008 RMK A01 T01720030  RH  039%=      5-min Rain = 0
KME1 172306Z 01008KT 17/03 A3008 RMK A01 T01710030  RH  039%=      5-min Rain = 0
KME1 172307Z 01007KT 17/03 A3008 RMK A01 T01710030  RH  039%=      5-min Rain = 0
KME1 172308Z 02008KT 17/03 A3008 RMK A01 T01700030  RH  039%=      5-min Rain = 0
KME1 172309Z 02007KT 17/03 A3008 RMK A01 T01700030  RH  039%=      5-min Rain = 0
KME1 172310Z 02008KT 17/03 A3008 RMK A01 T01700030  RH  039%=      5-min Rain = 0
KME1 172311Z 01008KT 17/03 A3008 RMK A01 T01690030  RH  039%=      5-min Rain = 0
KME1 172312Z 01007KT 17/03 A3008 RMK A01 T01680031  RH  040%=      5-min Rain = 0
KME1 172313Z 01006KT 17/03 A3008 RMK A01 T01670031  RH  040%=      5-min Rain = 0
KME1 172314Z 01007KT 17/03 A3008 RMK A01 T01660031  RH  040%=      5-min Rain = 0
KME1 172315Z 01006KT 17/03 A3008 RMK A01 T01660030  RH  040%=      5-min Rain = 0
KME1 172316Z 01006KT 17/03 A3008 RMK A01 T01650030  RH  040%=      5-min Rain = 0
KME1 172317Z 01005KT 17/03 A3008 RMK A01 T01650030  RH  041%=      5-min Rain = 0
KME1 172318Z 35004KT 16/03 A3008 RMK A01 T01640030  RH  041%=      5-min Rain = 0
KME1 172319Z 34004KT 16/03 A3008 RMK A01 T01630031  RH  041%=      5-min Rain = 0
KME1 172320Z 35005KT 16/03 A3008 RMK A01 T01620031  RH  041%=      5-min Rain = 0
KME1 172321Z 36006KT 16/03 A3009 RMK A01 T01610031  RH  042%=      5-min Rain = 0
KME1 172322Z 36006KT 16/03 A3009 RMK A01 T01600030  RH  042%=      5-min Rain = 0
KME1 172323Z 36006KT 16/03 A3009 RMK A01 T01600031  RH  042%=      5-min Rain = 0
KME1 172324Z 35005KT 16/03 A3009 RMK A01 T01590030  RH  042%=      5-min Rain = 0
KME1 172325Z 35005KT 16/03 A3009 RMK A01 T01580031  RH  042%=      5-min Rain = 0
KME1 172326Z 36004KT 16/03 A3008 RMK A01 T01570031  RH  043%=      5-min Rain = 0
KME1 172327Z 35005KT 16/03 A3008 RMK A01 T01560030  RH  043%=      5-min Rain = 0
KME1 172328Z 36005KT 16/03 A3008 RMK A01 T01550030  RH  043%=      5-min Rain = 0
KME1 172329Z 36005KT 15/03 A3008 RMK A01 T01540030  RH  043%=      5-min Rain = 0
KME1 172330Z 36004KT 15/03 A3008 RMK A01 T01530030  RH  044%=      5-min Rain = 0
KME1 172331Z 36005KT 15/03 A3008 RMK A01 T01520030  RH  044%=      5-min Rain = 0
KME1 172332Z 36005KT 15/03 A3008 RMK A01 T01510030  RH  044%=      5-min Rain = 0
KME1 172333Z 35004KT 15/03 A3008 RMK A01 T01500030  RH  045%=      5-min Rain = 0
KME1 172334Z 35004KT 15/03 A3008 RMK A01 T01490030  RH  045%=      5-min Rain = 0
KME1 172335Z 35004KT 15/03 A3008 RMK A01 T01470030  RH  045%=      5-min Rain = 0
KME1 172336Z 35004KT 15/03 A3008 RMK A01 T01470030  RH  045%=      5-min Rain = 0
KME1 172337Z 35004KT 15/03 A3008 RMK A01 T01450030  RH  046%=      5-min Rain = 0
KME1 172338Z 35004KT 14/03 A3008 RMK A01 T01440030  RH  046%=      5-min Rain = 0
KME1 172339Z 34005KT 14/03 A3008 RMK A01 T01430029  RH  046%=      5-min Rain = 0
KME1 172340Z 35004KT 14/03 A3008 RMK A01 T01410029  RH  047%=      5-min Rain = 0
KME1 172341Z 35004KT 14/03 A3008 RMK A01 T01410029  RH  047%=      5-min Rain = 0
KME1 172342Z 36004KT 14/03 A3008 RMK A01 T01400029  RH  047%=      5-min Rain = 0
KME1 172343Z 36004KT 14/03 A3008 RMK A01 T01390029  RH  047%=      5-min Rain = 0
KME1 172344Z 36003KT 14/03 A3008 RMK A01 T01380029  RH  048%=      5-min Rain = 0
KME1 172345Z 36003KT 14/03 A3008 RMK A01 T01380029  RH  048%=      5-min Rain = 0
KME1 172346Z 36003KT 14/03 A3008 RMK A01 T01380029  RH  048%=      5-min Rain = 0
KME1 172347Z 36003KT 14/03 A3008 RMK A01 T01380029  RH  048%=      5-min Rain = 0
KME1 172348Z 36003KT 14/03 A3008 RMK A01 T01370031  RH  049%=      5-min Rain = 0
KME1 172349Z 35003KT 14/03 A3008 RMK A01 T01350030  RH  049%=      5-min Rain = 0
KME1 172350Z 36003KT 13/03 A3008 RMK A01 T01320030  RH  050%=      5-min Rain = 0
KME1 172351Z 36004KT 13/03 A3008 RMK A01 T01310029  RH  050%=      5-min Rain = 0
KME1 172352Z 35004KT 13/03 A3008 RMK A01 T01300029  RH  050%=      5-min Rain = 0
KME1 172353Z 35004KT 13/03 A3008 RMK A01 T01290029  RH  051%=      5-min Rain = 0
KME1 172354Z 35004KT 13/03 A3008 RMK A01 T01270029  RH  051%=      5-min Rain = 0
KME1 172355Z 35005KT 13/03 A3008 RMK A01 T01250029  RH  052%=      5-min Rain = 0
KME1 172356Z 35005KT 12/03 A3008 RMK A01 T01230028  RH  052%=      5-min Rain = 0
KME1 172357Z 35004KT 12/03 A3008 RMK A01 T01220028  RH  053%=      5-min Rain = 0
KME1 172358Z 35005KT 12/03 A3008 RMK A01 T01210028  RH  053%=      5-min Rain = 0
KME1 172359Z 35005KT 12/03 A3008 RMK A01 T01210028  RH  053%=      5-min Rain = 0
KME1 180000Z 35004KT 12/03 A3008 RMK A01 T01210028  RH  053%=      5-min Rain = 0
KME1 180001Z 35004KT 12/03 A3008 RMK A01 T01210028  RH  053%=      5-min Rain = 0
KME1 180002Z 35004KT 12/03 A3008 RMK A01 T01200028  RH  053%=      5-min Rain = 0
KME1 180003Z 34004KT 12/03 A3008 RMK A01 T01200028  RH  053%=      5-min Rain = 0
KME1 180004Z 34003KT 12/03 A3008 RMK A01 T01200029  RH  054%=      5-min Rain = 0
KME1 180005Z 35004KT 12/03 A3008 RMK A01 T01190029  RH  054%=      5-min Rain = 0
KME1 180006Z 35004KT 12/03 A3008 RMK A01 T01180028  RH  054%=      5-min Rain = 0
KME1 180007Z 35004KT 12/03 A3008 RMK A01 T01180028  RH  054%=      5-min Rain = 0
KME1 180008Z 35004KT 12/03 A3008 RMK A01 T01180028  RH  054%=      5-min Rain = 0
KME1 180009Z 35004KT 12/03 A3008 RMK A01 T01180028  RH  054%=      5-min Rain = 0
KME1 180010Z 35004KT 12/03 A3008 RMK A01 T01180028  RH  054%=      5-min Rain = 0
KME1 180011Z 34004KT 12/03 A3008 RMK A01 T01180028  RH  054%=      5-min Rain = 0
KME1 180012Z 34004KT 12/03 A3008 RMK A01 T01170028  RH  054%=      5-min Rain = 0
KME1 180013Z 33004KT 12/03 A3008 RMK A01 T01160028  RH  055%=      5-min Rain = 0
KME1 180014Z 33004KT 11/03 A3008 RMK A01 T01140028  RH  055%=      5-min Rain = 0
KME1 180015Z 34004KT 11/03 A3008 RMK A01 T01130028  RH  056%=      5-min Rain = 0
KME1 180016Z 34004KT 11/03 A3008 RMK A01 T01110027  RH  056%=      5-min Rain = 0
KME1 180017Z 35004KT 11/03 A3008 RMK A01 T01110028  RH  057%=      5-min Rain = 0
KME1 180018Z 34004KT 11/03 A3008 RMK A01 T01100027  RH  057%=      5-min Rain = 0
KME1 180019Z 34004KT 11/03 A3008 RMK A01 T01100028  RH  057%=      5-min Rain = 0
KME1 180020Z 34004KT 11/03 A3008 RMK A01 T01090027  RH  057%=      5-min Rain = 0
KME1 180021Z 34004KT 11/03 A3008 RMK A01 T01100027  RH  057%=      5-min Rain = 0
KME1 180022Z 34004KT 11/03 A3008 RMK A01 T01090027  RH  057%=      5-min Rain = 0
KME1 180023Z 34004KT 11/03 A3008 RMK A01 T01100028  RH  057%=      5-min Rain = 0
KME1 180024Z 34005KT 11/03 A3009 RMK A01 T01090027  RH  057%=      5-min Rain = 0
KME1 180025Z 34005KT 11/03 A3009 RMK A01 T01100027  RH  057%=      5-min Rain = 0
KME1 180026Z 34005KT 11/03 A3009 RMK A01 T01090027  RH  057%=      5-min Rain = 0
KME1 180027Z 34005KT 11/03 A3009 RMK A01 T01080027  RH  057%=      5-min Rain = 0
KME1 180028Z 33005KT 11/03 A3009 RMK A01 T01070027  RH  058%=      5-min Rain = 0
KME1 180029Z 33005KT 11/03 A3009 RMK A01 T01060027  RH  058%=      5-min Rain = 0
KME1 180030Z 33005KT 11/03 A3009 RMK A01 T01060027  RH  058%=      5-min Rain = 0
KME1 180031Z 33004KT 11/03 A3009 RMK A01 T01060028  RH  058%=      5-min Rain = 0
KME1 180032Z 33005KT 11/03 A3009 RMK A01 T01060027  RH  058%=      5-min Rain = 0
KME1 180033Z 33005KT 11/03 A3009 RMK A01 T01060028  RH  058%=      5-min Rain = 0
KME1 180034Z 33005KT 11/03 A3009 RMK A01 T01050027  RH  059%=      5-min Rain = 0
KME1 180035Z 33005KT 10/03 A3009 RMK A01 T01040027  RH  059%=      5-min Rain = 0
KME1 180036Z 33005KT 10/03 A3009 RMK A01 T01030027  RH  060%=      5-min Rain = 0
KME1 180037Z 33005KT 10/03 A3009 RMK A01 T01020027  RH  060%=      5-min Rain = 0
KME1 180038Z 33005KT 10/03 A3009 RMK A01 T01020027  RH  060%=      5-min Rain = 0
KME1 180039Z 33005KT 10/03 A3009 RMK A01 T01010027  RH  060%=      5-min Rain = 0
KME1 180040Z 33005KT 10/03 A3009 RMK A01 T01010027  RH  060%=      5-min Rain = 0
KME1 180041Z 32005KT 10/03 A3009 RMK A01 T01000027  RH  060%=      5-min Rain = 0
KME1 180042Z 32004KT 10/03 A3009 RMK A01 T01000027  RH  061%=      5-min Rain = 0
KME1 180043Z 32005KT 10/03 A3009 RMK A01 T00990027  RH  061%=      5-min Rain = 0
KME1 180044Z 32005KT 10/03 A3009 RMK A01 T00980027  RH  061%=      5-min Rain = 0
KME1 180045Z 33005KT 10/03 A3009 RMK A01 T00970027  RH  062%=      5-min Rain = 0
KME1 180046Z 33005KT 10/03 A3009 RMK A01 T00970027  RH  062%=      5-min Rain = 0
KME1 180047Z 33005KT 10/03 A3009 RMK A01 T00970027  RH  062%=      5-min Rain = 0
KME1 180048Z 34005KT 10/03 A3009 RMK A01 T00970027  RH  062%=      5-min Rain = 0
KME1 180049Z 33005KT 10/03 A3009 RMK A01 T00960027  RH  062%=      5-min Rain = 0
KME1 180050Z 33005KT 10/03 A3009 RMK A01 T00960027  RH  062%=      5-min Rain = 0
KME1 180051Z 33005KT 10/03 A3009 RMK A01 T00960027  RH  062%=      5-min Rain = 0
KME1 180052Z 33005KT 10/03 A301 RMK A01 T00970026  RH  062%=      5-min Rain = 0
KME1 180053Z 33005KT 10/03 A301 RMK A01 T00970026  RH  062%=      5-min Rain = 0
KME1 180054Z 32005KT 10/03 A301 RMK A01 T00980027  RH  061%=      5-min Rain = 0
KME1 180055Z 33005KT 10/03 A301 RMK A01 T00980027  RH  061%=      5-min Rain = 0
KME1 180056Z 33005KT 10/03 A301 RMK A01 T00970026  RH  061%=      5-min Rain = 0
KME1 180057Z 33006KT 10/03 A301 RMK A01 T00970026  RH  062%=      5-min Rain = 0
KME1 180058Z 32006KT 10/03 A301 RMK A01 T00960026  RH  062%=      5-min Rain = 0
KME1 180059Z 33005KT 10/03 A301 RMK A01 T00950026  RH  062%=      5-min Rain = 0
KME1 180100Z 32005KT 09/03 A301 RMK A01 T00940026  RH  062%=      5-min Rain = 0
KME1 180101Z 32006KT 09/03 A301 RMK A01 T00940026  RH  062%=      5-min Rain = 0
KME1 180102Z 32006KT 09/03 A301 RMK A01 T00940026  RH  063%=      5-min Rain = 0
KME1 180103Z 32006KT 09/03 A301 RMK A01 T00930026  RH  063%=      5-min Rain = 0
KME1 180104Z 32006KT 09/03 A301 RMK A01 T00930026  RH  063%=      5-min Rain = 0
KME1 180105Z 32006KT 09/03 A301 RMK A01 T00930026  RH  063%=      5-min Rain = 0
KME1 180106Z 32005KT 09/03 A301 RMK A01 T00920025  RH  063%=      5-min Rain = 0
KME1 180107Z 31005KT 09/03 A3011 RMK A01 T00920025  RH  063%=      5-min Rain = 0
KME1 180108Z 31005KT 09/03 A3011 RMK A01 T00930025  RH  063%=      5-min Rain = 0
KME1 180109Z 31005KT 09/03 A3011 RMK A01 T00930025  RH  063%=      5-min Rain = 0
KME1 180110Z 32005KT 09/03 A3011 RMK A01 T00930026  RH  063%=      5-min Rain = 0
KME1 180111Z 32005KT 09/03 A3011 RMK A01 T00930025  RH  063%=      5-min Rain = 0
KME1 180112Z 32005KT 09/03 A3011 RMK A01 T00930025  RH  063%=      5-min Rain = 0
KME1 180113Z 33005KT 09/03 A3011 RMK A01 T00930025  RH  063%=      5-min Rain = 0
KME1 180114Z 33006KT 09/03 A3011 RMK A01 T00920025  RH  063%=      5-min Rain = 0
KME1 180115Z 32005KT 09/03 A3011 RMK A01 T00910025  RH  063%=      5-min Rain = 0
KME1 180116Z 31005KT 09/03 A3011 RMK A01 T00900025  RH  064%=      5-min Rain = 0
KME1 180117Z 31005KT 09/02 A3011 RMK A01 T00890024  RH  064%=      5-min Rain = 0
KME1 180118Z 31005KT 09/02 A3011 RMK A01 T00880024  RH  064%=      5-min Rain = 0
KME1 180119Z 31005KT 09/02 A3011 RMK A01 T00880024  RH  064%=      5-min Rain = 0
KME1 180120Z 31005KT 09/02 A3011 RMK A01 T00890024  RH  064%=      5-min Rain = 0
KME1 180121Z 30005KT 09/03 A3011 RMK A01 T00890025  RH  064%=      5-min Rain = 0
KME1 180122Z 30006KT 09/03 A3011 RMK A01 T00900025  RH  064%=      5-min Rain = 0
KME1 180123Z 30006KT 09/03 A301 RMK A01 T00900025  RH  063%=      5-min Rain = 0
KME1 180124Z 30006KT 09/03 A301 RMK A01 T00910025  RH  063%=      5-min Rain = 0
KME1 180125Z 30005KT 09/03 A3011 RMK A01 T00920025  RH  063%=      5-min Rain = 0
KME1 180126Z 30005KT 09/03 A3011 RMK A01 T00920025  RH  063%=      5-min Rain = 0
KME1 180127Z 29005KT 09/03 A3011 RMK A01 T00920025  RH  063%=      5-min Rain = 0
KME1 180128Z 29004KT 09/03 A3011 RMK A01 T00920025  RH  063%=      5-min Rain = 0
KME1 180129Z 29003KT 09/02 A3011 RMK A01 T00910024  RH  063%=      5-min Rain = 0
KME1 180130Z 29003KT 09/02 A3011 RMK A01 T00880023  RH  063%=      5-min Rain = 0
KME1 180131Z 29001KT 09/02 A3011 RMK A01 T00860022  RH  064%=      5-min Rain = 0
KME1 180132Z 28000KT 08/02 A3011 RMK A01 T00840022  RH  065%=      5-min Rain = 0
KME1 180133Z 30000KT 08/02 A3011 RMK A01 T00820022  RH  066%=      5-min Rain = 0
KME1 180134Z 32000KT 08/02 A3011 RMK A01 T00810022  RH  066%=      5-min Rain = 0
KME1 180135Z 29000KT 08/02 A3011 RMK A01 T00800022  RH  067%=      5-min Rain = 0
KME1 180136Z 31001KT 08/02 A3011 RMK A01 T00790022  RH  067%=      5-min Rain = 0
KME1 180137Z 31002KT 08/02 A3011 RMK A01 T00770022  RH  068%=      5-min Rain = 0
KME1 180138Z 30002KT 08/02 A3011 RMK A01 T00760022  RH  069%=      5-min Rain = 0
KME1 180139Z 30003KT 08/02 A3011 RMK A01 T00750022  RH  069%=      5-min Rain = 0
KME1 180140Z 30003KT 07/02 A3011 RMK A01 T00740022  RH  069%=      5-min Rain = 0
KME1 180141Z 31003KT 07/02 A3011 RMK A01 T00740022  RH  070%=      5-min Rain = 0
KME1 180142Z 31004KT 07/02 A3011 RMK A01 T00730022  RH  070%=      5-min Rain = 0
KME1 180143Z 31004KT 07/02 A3011 RMK A01 T00730021  RH  070%=      5-min Rain = 0
KME1 180144Z 30004KT 07/02 A3011 RMK A01 T00740022  RH  069%=      5-min Rain = 0
KME1 180145Z 30004KT 07/02 A3011 RMK A01 T00740022  RH  069%=      5-min Rain = 0
KME1 180146Z 30005KT 07/02 A3011 RMK A01 T00740022  RH  069%=      5-min Rain = 0
KME1 180147Z 31005KT 07/02 A3011 RMK A01 T00740021  RH  069%=      5-min Rain = 0
KME1 180148Z 31005KT 07/02 A3011 RMK A01 T00720020  RH  070%=      5-min Rain = 0
KME1 180149Z 31005KT 07/02 A3011 RMK A01 T00700019  RH  070%=      5-min Rain = 0
KME1 180150Z 31005KT 07/02 A3011 RMK A01 T00680019  RH  071%=      5-min Rain = 0
KME1 180151Z 31005KT 07/02 A3011 RMK A01 T00680020  RH  071%=      5-min Rain = 0
KME1 180152Z 31005KT 07/02 A3011 RMK A01 T00680020  RH  072%=      5-min Rain = 0
KME1 180153Z 30005KT 07/02 A3011 RMK A01 T00670019  RH  072%=      5-min Rain = 0
KME1 180154Z 30005KT 07/02 A3011 RMK A01 T00650019  RH  072%=      5-min Rain = 0
KME1 180155Z 30004KT 07/02 A3011 RMK A01 T00650020  RH  073%=      5-min Rain = 0
KME1 180156Z 30004KT 06/02 A3011 RMK A01 T00640020  RH  073%=      5-min Rain = 0
KME1 180157Z 31004KT 06/02 A3011 RMK A01 T00630019  RH  073%=      5-min Rain = 0
KME1 180158Z 31004KT 06/02 A3011 RMK A01 T00630019  RH  074%=      5-min Rain = 0
KME1 180159Z 31003KT 06/02 A3011 RMK A01 T00620018  RH  074%=      5-min Rain = 0
KME1 180200Z 30002KT 06/02 A3011 RMK A01 T00610018  RH  074%=      5-min Rain = 0
KME1 180201Z 26001KT 06/02 A3011 RMK A01 T00600018  RH  075%=      5-min Rain = 0
KME1 180202Z 19001KT 06/02 A3011 RMK A01 T00590018  RH  075%=      5-min Rain = 0
KME1 180203Z 20001KT 06/02 A3011 RMK A01 T00580019  RH  076%=      5-min Rain = 0
KME1 180204Z 22001KT 06/02 A3011 RMK A01 T00570020  RH  077%=      5-min Rain = 0
KME1 180205Z 21001KT 06/02 A3011 RMK A01 T00570020  RH  077%=      5-min Rain = 0
KME1 180206Z 20001KT 06/02 A3011 RMK A01 T00570020  RH  077%=      5-min Rain = 0
KME1 180207Z 23002KT 06/02 A3011 RMK A01 T00570020  RH  077%=      5-min Rain = 0
KME1 180208Z 20002KT 06/02 A3012 RMK A01 T00580022  RH  078%=      5-min Rain = 0
KME1 180209Z 19003KT 06/02 A3012 RMK A01 T00570021  RH  078%=      5-min Rain = 0
KME1 180210Z 20004KT 06/02 A3012 RMK A01 T00560021  RH  078%=      5-min Rain = 0
KME1 180211Z 20003KT 06/02 A3012 RMK A01 T00550020  RH  078%=      5-min Rain = 0
KME1 180212Z 20003KT 06/02 A3012 RMK A01 T00550020  RH  078%=      5-min Rain = 0
KME1 180213Z 20004KT 05/02 A3012 RMK A01 T00540020  RH  078%=      5-min Rain = 0
KME1 180214Z 20004KT 05/02 A3012 RMK A01 T00540020  RH  079%=      5-min Rain = 0
KME1 180215Z 19004KT 06/02 A3012 RMK A01 T00550021  RH  079%=      5-min Rain = 0
KME1 180216Z 19004KT 06/02 A3012 RMK A01 T00550022  RH  079%=      5-min Rain = 0
KME1 180217Z 19004KT 06/02 A3012 RMK A01 T00560022  RH  079%=      5-min Rain = 0
KME1 180218Z 19003KT 06/02 A3012 RMK A01 T00560022  RH  078%=      5-min Rain = 0
KME1 180219Z 20002KT 06/02 A3012 RMK A01 T00570022  RH  078%=      5-min Rain = 0
KME1 180220Z 20002KT 06/02 A3012 RMK A01 T00570022  RH  078%=      5-min Rain = 0
KME1 180221Z 20002KT 06/02 A3012 RMK A01 T00580022  RH  078%=      5-min Rain = 0
KME1 180222Z 20001KT 06/02 A3012 RMK A01 T00580022  RH  078%=      5-min Rain = 0
KME1 180223Z 21000KT 06/02 A3012 RMK A01 T00580022  RH  078%=      5-min Rain = 0
KME1 180224Z 25000KT 06/02 A3012 RMK A01 T00580022  RH  078%=      5-min Rain = 0
KME1 180225Z 29001KT 06/02 A3012 RMK A01 T00590023  RH  078%=      5-min Rain = 0
KME1 180226Z 31001KT 06/02 A3012 RMK A01 T00620023  RH  076%=      5-min Rain = 0
KME1 180227Z 33001KT 06/02 A3012 RMK A01 T00630022  RH  075%=      5-min Rain = 0
KME1 180228Z 33002KT 06/02 A3012 RMK A01 T00630020  RH  074%=      5-min Rain = 0
KME1 180229Z 32002KT 06/02 A3012 RMK A01 T00620020  RH  075%=      5-min Rain = 0
KME1 180230Z 33001KT 06/02 A3013 RMK A01 T00610020  RH  075%=      5-min Rain = 0
KME1 180231Z 33001KT 06/02 A3013 RMK A01 T00600020  RH  075%=      5-min Rain = 0
KME1 180232Z 33000KT 06/02 A3013 RMK A01 T00580018  RH  076%=      5-min Rain = 0
KME1 180233Z 18000KT 05/02 A3013 RMK A01 T00540015  RH  076%=      5-min Rain = 0
KME1 180234Z 18002KT 05/02 A3013 RMK A01 T00500015  RH  078%=      5-min Rain = 0
KME1 180235Z 18004KT 05/02 A3013 RMK A01 T00480015  RH  079%=      5-min Rain = 0
KME1 180236Z 18004KT 05/02 A3013 RMK A01 T00470016  RH  081%=      5-min Rain = 0
KME1 180237Z 18003KT 05/02 A3013 RMK A01 T00460018  RH  082%=      5-min Rain = 0
KME1 180238Z 19003KT 05/02 A3013 RMK A01 T00470021  RH  083%=      5-min Rain = 0
KME1 180239Z 21002KT 05/02 A3014 RMK A01 T00490021  RH  082%=      5-min Rain = 0
KME1 180240Z 21001KT 05/02 A3013 RMK A01 T00500020  RH  081%=      5-min Rain = 0
KME1 180241Z 20001KT 05/02 A3013 RMK A01 T00500019  RH  080%=      5-min Rain = 0
KME1 180242Z 19001KT 05/02 A3013 RMK A01 T00500019  RH  080%=      5-min Rain = 0
KME1 180243Z 18001KT 05/02 A3013 RMK A01 T00500019  RH  080%=      5-min Rain = 0
KME1 180244Z 00000KT 05/02 A3013 RMK A01 T00500019  RH  080%=      5-min Rain = 0
KME1 180245Z 00000KT 05/02 A3013 RMK A01 T00510019  RH  080%=      5-min Rain = 0
KME1 180246Z 00000KT 05/02 A3013 RMK A01 T00520019  RH  079%=      5-min Rain = 0
KME1 180247Z 04000KT 05/02 A3013 RMK A01 T00520019  RH  079%=      5-min Rain = 0
KME1 180248Z 05002KT 05/02 A3013 RMK A01 T00530020  RH  079%=      5-min Rain = 0
KME1 180249Z 06004KT 05/02 A3013 RMK A01 T00530017  RH  078%=      5-min Rain = 0
KME1 180250Z 06005KT 05/01 A3013 RMK A01 T00480012  RH  078%=      5-min Rain = 0
KME1 180251Z 06005KT 04/01 A3012 RMK A01 T00440012  RH  080%=      5-min Rain = 0
KME1 180252Z 03005KT 04/01 A3012 RMK A01 T00420013  RH  081%=      5-min Rain = 0
KME1 180253Z 02005KT 04/02 A3013 RMK A01 T00410015  RH  083%=      5-min Rain = 0
KME1 180254Z 03005KT 04/02 A3013 RMK A01 T00420017  RH  084%=      5-min Rain = 0
KME1 180255Z 02005KT 04/02 A3013 RMK A01 T00410018  RH  085%=      5-min Rain = 0
KME1 180256Z 02004KT 04/02 A3013 RMK A01 T00420018  RH  085%=      5-min Rain = 0
KME1 180257Z 01004KT 04/02 A3013 RMK A01 T00420019  RH  085%=      5-min Rain = 0
KME1 180258Z 01003KT 04/02 A3012 RMK A01 T00440020  RH  085%=      5-min Rain = 0
KME1 180259Z 32001KT 05/02 A3012 RMK A01 T00450020  RH  084%=      5-min Rain = 0
KME1 180300Z 25002KT 05/02 A3013 RMK A01 T00470020  RH  083%=      5-min Rain = 0
KME1 180301Z 23004KT 05/02 A3013 RMK A01 T00470020  RH  083%=      5-min Rain = 0
KME1 180302Z 23007KT 05/02 A3013 RMK A01 T00460020  RH  083%=      5-min Rain = 0
KME1 180303Z 22007KT 05/02 A3014 RMK A01 T00450021  RH  084%=      5-min Rain = 0
KME1 180304Z 22005KT 05/02 A3014 RMK A01 T00450022  RH  085%=      5-min Rain = 0
KME1 180305Z 21003KT 05/02 A3013 RMK A01 T00450021  RH  084%=      5-min Rain = 0
KME1 180306Z 22004KT 05/02 A3013 RMK A01 T00450021  RH  084%=      5-min Rain = 0
KME1 180307Z 24003KT 05/02 A3013 RMK A01 T00450022  RH  085%=      5-min Rain = 0
KME1 180308Z 27003KT 05/02 A3013 RMK A01 T00460022  RH  084%=      5-min Rain = 0
KME1 180309Z 31002KT 05/02 A3013 RMK A01 T00470022  RH  084%=      5-min Rain = 0
KME1 180310Z 34003KT 05/02 A3013 RMK A01 T00490021  RH  082%=      5-min Rain = 0
KME1 180311Z 35004KT 05/02 A3013 RMK A01 T00490021  RH  082%=      5-min Rain = 0
KME1 180312Z 00004KT 05/02 A3013 RMK A01 T00490020  RH  082%=      5-min Rain = 0
KME1 180313Z 01005KT 05/02 A3012 RMK A01 T00500020  RH  081%=      5-min Rain = 0
KME1 180314Z 02005KT 05/02 A3012 RMK A01 T00500021  RH  081%=      5-min Rain = 0
KME1 180315Z 02005KT 05/02 A3012 RMK A01 T00510020  RH  081%=      5-min Rain = 0
KME1 180316Z 02004KT 05/02 A3012 RMK A01 T00490019  RH  081%=      5-min Rain = 0
KME1 180317Z 03002KT 05/02 A3012 RMK A01 T00470016  RH  081%=      5-min Rain = 0
KME1 180318Z 04002KT 05/02 A3012 RMK A01 T00460016  RH  081%=      5-min Rain = 0
KME1 180319Z 05000KT 05/02 A3012 RMK A01 T00450017  RH  082%=      5-min Rain = 0
KME1 180320Z 00000KT 05/02 A3012 RMK A01 T00450019  RH  083%=      5-min Rain = 0
KME1 180321Z 18002KT 05/02 A3012 RMK A01 T00450016  RH  082%=      5-min Rain = 0
KME1 180322Z 20003KT 04/01 A3012 RMK A01 T00410013  RH  082%=      5-min Rain = 0
KME1 180323Z 20005KT 04/02 A3013 RMK A01 T00390015  RH  084%=      5-min Rain = 0
KME1 180324Z 21005KT 04/02 A3013 RMK A01 T00390017  RH  086%=      5-min Rain = 0
KME1 180325Z 21004KT 04/02 A3013 RMK A01 T00380018  RH  087%=      5-min Rain = 0
KME1 180326Z 21005KT 04/02 A3013 RMK A01 T00380019  RH  087%=      5-min Rain = 0
KME1 180327Z 22004KT 04/02 A3013 RMK A01 T00390020  RH  087%=      5-min Rain = 0
KME1 180328Z 22003KT 04/02 A3013 RMK A01 T00390020  RH  087%=      5-min Rain = 0
KME1 180329Z 22002KT 04/02 A3013 RMK A01 T00400020  RH  087%=      5-min Rain = 0
KME1 180330Z 20002KT 04/02 A3012 RMK A01 T00400021  RH  087%=      5-min Rain = 0
KME1 180331Z 17001KT 04/02 A3012 RMK A01 T00400021  RH  087%=      5-min Rain = 0
KME1 180332Z 16001KT 04/02 A3012 RMK A01 T00410020  RH  087%=      5-min Rain = 0
KME1 180333Z 17001KT 04/02 A3013 RMK A01 T00400019  RH  086%=      5-min Rain = 0
KME1 180334Z 19001KT 04/02 A3013 RMK A01 T00400019  RH  086%=      5-min Rain = 0
KME1 180335Z 19002KT 04/02 A3013 RMK A01 T00390019  RH  087%=      5-min Rain = 0
KME1 180336Z 19002KT 04/02 A3013 RMK A01 T00400020  RH  087%=      5-min Rain = 0
KME1 180337Z 19003KT 04/02 A3013 RMK A01 T00400020  RH  086%=      5-min Rain = 0
KME1 180338Z 19005KT 04/02 A3013 RMK A01 T00400018  RH  085%=      5-min Rain = 0
KME1 180339Z 20006KT 04/02 A3013 RMK A01 T00390016  RH  085%=      5-min Rain = 0
KME1 180340Z 20007KT 04/02 A3013 RMK A01 T00380018  RH  087%=      5-min Rain = 0
KME1 180341Z 20006KT 04/02 A3012 RMK A01 T00380021  RH  088%=      5-min Rain = 0
KME1 180342Z 20006KT 04/02 A3012 RMK A01 T00390022  RH  089%=      5-min Rain = 0
KME1 180343Z 20005KT 04/02 A3012 RMK A01 T00400022  RH  089%=      5-min Rain = 0
KME1 180344Z 21005KT 04/02 A3013 RMK A01 T00410023  RH  088%=      5-min Rain = 0
KME1 180345Z 21004KT 04/02 A3013 RMK A01 T00410023  RH  088%=      5-min Rain = 0
KME1 180346Z 22004KT 04/02 A3013 RMK A01 T00410023  RH  088%=      5-min Rain = 0
KME1 180347Z 21004KT 04/02 A3013 RMK A01 T00410022  RH  088%=      5-min Rain = 0
KME1 180348Z 21004KT 04/02 A3013 RMK A01 T00420023  RH  087%=      5-min Rain = 0
KME1 180349Z 20003KT 04/02 A3013 RMK A01 T00430022  RH  087%=      5-min Rain = 0
KME1 180350Z 22004KT 04/02 A3013 RMK A01 T00440022  RH  086%=      5-min Rain = 0
KME1 180351Z 23005KT 04/02 A3013 RMK A01 T00440020  RH  085%=      5-min Rain = 0
KME1 180352Z 23005KT 04/02 A3013 RMK A01 T00440020  RH  084%=      5-min Rain = 0
KME1 180353Z 24005KT 04/02 A3013 RMK A01 T00430020  RH  085%=      5-min Rain = 0
KME1 180354Z 24005KT 04/02 A3013 RMK A01 T00440021  RH  085%=      5-min Rain = 0
KME1 180355Z 23004KT 04/02 A3012 RMK A01 T00440021  RH  085%=      5-min Rain = 0
KME1 180356Z 22004KT 05/02 A3012 RMK A01 T00450021  RH  085%=      5-min Rain = 0
KME1 180357Z 23005KT 05/02 A3012 RMK A01 T00450021  RH  084%=      5-min Rain = 0
KME1 180358Z 23005KT 05/02 A3012 RMK A01 T00460020  RH  084%=      5-min Rain = 0
KME1 180359Z 23006KT 05/02 A3013 RMK A01 T00460020  RH  084%=      5-min Rain = 0
KME1 180400Z 23005KT 05/02 A3013 RMK A01 T00450020  RH  084%=      5-min Rain = 0
KME1 180401Z 22004KT 05/02 A3012 RMK A01 T00450021  RH  084%=      5-min Rain = 0
KME1 180402Z 22004KT 05/02 A3012 RMK A01 T00450021  RH  084%=      5-min Rain = 0
KME1 180403Z 24004KT 05/02 A3012 RMK A01 T00460021  RH  084%=      5-min Rain = 0
KME1 180404Z 25004KT 05/02 A3013 RMK A01 T00460021  RH  084%=      5-min Rain = 0
KME1 180405Z 25005KT 05/02 A3013 RMK A01 T00460021  RH  084%=      5-min Rain = 0
KME1 180406Z 24005KT 05/02 A3013 RMK A01 T00470021  RH  084%=      5-min Rain = 0
KME1 180407Z 24004KT 05/02 A3013 RMK A01 T00470022  RH  084%=      5-min Rain = 0
KME1 180408Z 24004KT 05/02 A3012 RMK A01 T00490023  RH  083%=      5-min Rain = 0
KME1 180409Z 24004KT 05/02 A3012 RMK A01 T00490022  RH  083%=      5-min Rain = 0
KME1 180410Z 26004KT 05/02 A3013 RMK A01 T00490020  RH  081%=      5-min Rain = 0
KME1 180411Z 26005KT 05/02 A3013 RMK A01 T00470017  RH  081%=      5-min Rain = 0
KME1 180412Z 26004KT 05/02 A3013 RMK A01 T00460017  RH  081%=      5-min Rain = 0
KME1 180413Z 26003KT 05/02 A3012 RMK A01 T00450017  RH  082%=      5-min Rain = 0
KME1 180414Z 26001KT 04/02 A3012 RMK A01 T00440016  RH  082%=      5-min Rain = 0
KME1 180415Z 28001KT 04/01 A3012 RMK A01 T00400010  RH  081%=      5-min Rain = 0
KME1 180416Z 33001KT 04/01 A3013 RMK A01 T00350007  RH  082%=      5-min Rain = 0
KME1 180417Z 31001KT 03/01 A3013 RMK A01 T00330008  RH  083%=      5-min Rain = 0
KME1 180418Z 29001KT 03/01 A3013 RMK A01 T00320009  RH  085%=      5-min Rain = 0
KME1 180419Z 16004KT 03/01 A3013 RMK A01 T00300007  RH  085%=      5-min Rain = 0
KME1 180420Z 16006KT 03/01 A3013 RMK A01 T00290011  RH  088%=      5-min Rain = 0
KME1 180421Z 17005KT 03/02 A3013 RMK A01 T00300016  RH  091%=      5-min Rain = 0
KME1 180422Z 18004KT 03/02 A3013 RMK A01 T00320021  RH  092%=      5-min Rain = 0
KME1 180423Z 19003KT 03/02 A3013 RMK A01 T00330023  RH  093%=      5-min Rain = 0
KME1 180424Z 20003KT 04/02 A3014 RMK A01 T00350024  RH  093%=      5-min Rain = 0
KME1 180425Z 21003KT 04/02 A3014 RMK A01 T00360024  RH  092%=      5-min Rain = 0
KME1 180426Z 20002KT 04/02 A3013 RMK A01 T00360024  RH  092%=      5-min Rain = 0
KME1 180427Z 20002KT 04/02 A3013 RMK A01 T00360023  RH  091%=      5-min Rain = 0
KME1 180428Z 21002KT 04/02 A3013 RMK A01 T00360022  RH  091%=      5-min Rain = 0
KME1 180429Z 22002KT 04/02 A3013 RMK A01 T00370023  RH  091%=      5-min Rain = 0
KME1 180430Z 23003KT 04/02 A3013 RMK A01 T00380023  RH  090%=      5-min Rain = 0
KME1 180431Z 23003KT 04/02 A3014 RMK A01 T00390022  RH  089%=      5-min Rain = 0
KME1 180432Z 21003KT 04/02 A3013 RMK A01 T00390021  RH  088%=      5-min Rain = 0
KME1 180433Z 20004KT 04/02 A3013 RMK A01 T00390021  RH  088%=      5-min Rain = 0
KME1 180434Z 18004KT 04/02 A3012 RMK A01 T00390020  RH  088%=      5-min Rain = 0
KME1 180435Z 19005KT 04/02 A3012 RMK A01 T00380018  RH  087%=      5-min Rain = 0
KME1 180436Z 22004KT 04/02 A3013 RMK A01 T00360017  RH  087%=      5-min Rain = 0
KME1 180437Z 25005KT 04/02 A3013 RMK A01 T00350018  RH  088%=      5-min Rain = 0
KME1 180438Z 26006KT 03/02 A3013 RMK A01 T00340018  RH  089%=      5-min Rain = 0
KME1 180439Z 27005KT 03/02 A3013 RMK A01 T00340020  RH  090%=      5-min Rain = 0
KME1 180440Z 28003KT 04/02 A3012 RMK A01 T00350022  RH  091%=      5-min Rain = 0
KME1 180441Z 30002KT 04/02 A3012 RMK A01 T00380024  RH  091%=      5-min Rain = 0
KME1 180442Z 30002KT 04/02 A3011 RMK A01 T00390023  RH  089%=      5-min Rain = 0
KME1 180443Z 31003KT 04/02 A3011 RMK A01 T00390020  RH  087%=      5-min Rain = 0
KME1 180444Z 30004KT 04/02 A3012 RMK A01 T00370019  RH  088%=      5-min Rain = 0
KME1 180445Z 31004KT 04/02 A3012 RMK A01 T00360019  RH  088%=      5-min Rain = 0
KME1 180446Z 32005KT 04/02 A3012 RMK A01 T00360019  RH  089%=      5-min Rain = 0
KME1 180447Z 32004KT 04/02 A3012 RMK A01 T00350019  RH  089%=      5-min Rain = 0
KME1 180448Z 31003KT 04/02 A3012 RMK A01 T00350018  RH  089%=      5-min Rain = 0
KME1 180449Z 20002KT 03/02 A3012 RMK A01 T00330016  RH  089%=      5-min Rain = 0
KME1 180450Z 16007KT 03/01 A3012 RMK A01 T00310014  RH  088%=      5-min Rain = 0
KME1 180451Z 17007KT 03/02 A3013 RMK A01 T00300016  RH  091%=      5-min Rain = 0
KME1 180452Z 18007KT 03/02 A3013 RMK A01 T00300020  RH  093%=      5-min Rain = 0
KME1 180453Z 19006KT 03/03 A3013 RMK A01 T00330026  RH  095%=      5-min Rain = 0
KME1 180454Z 20005KT 04/03 A3013 RMK A01 T00360026  RH  093%=      5-min Rain = 0
KME1 180455Z 19004KT 04/03 A3012 RMK A01 T00370025  RH  092%=      5-min Rain = 0
KME1 180456Z 20004KT 04/02 A3012 RMK A01 T00380024  RH  091%=      5-min Rain = 0
KME1 180457Z 21004KT 04/02 A3012 RMK A01 T00390024  RH  090%=      5-min Rain = 0
KME1 180458Z 23004KT 04/02 A3013 RMK A01 T00390022  RH  089%=      5-min Rain = 0
KME1 180459Z 23004KT 04/02 A3013 RMK A01 T00390022  RH  089%=      5-min Rain = 0
KME1 180500Z 24004KT 04/02 A3013 RMK A01 T00390022  RH  088%=      5-min Rain = 0
KME1 180501Z 23004KT 04/02 A3012 RMK A01 T00390021  RH  088%=      5-min Rain = 0
KME1 180502Z 23003KT 04/02 A3012 RMK A01 T00400022  RH  088%=      5-min Rain = 0
KME1 180503Z 25003KT 04/02 A3012 RMK A01 T00400021  RH  088%=      5-min Rain = 0
KME1 180504Z 28002KT 04/02 A3012 RMK A01 T00400021  RH  088%=      5-min Rain = 0
KME1 180505Z 28003KT 04/02 A3013 RMK A01 T00390020  RH  087%=      5-min Rain = 0
KME1 180506Z 31002KT 04/02 A3013 RMK A01 T00390020  RH  088%=      5-min Rain = 0
KME1 180507Z 30001KT 04/02 A3012 RMK A01 T00380019  RH  087%=      5-min Rain = 0
KME1 180508Z 36001KT 04/02 A3012 RMK A01 T00360016  RH  086%=      5-min Rain = 0
KME1 180509Z 36001KT 04/02 A3012 RMK A01 T00350015  RH  087%=      5-min Rain = 0
KME1 180510Z 16003KT 03/02 A3012 RMK A01 T00340015  RH  087%=      5-min Rain = 0
KME1 180511Z 18006KT 03/02 A3013 RMK A01 T00330016  RH  089%=      5-min Rain = 0
KME1 180512Z 19005KT 03/02 A3012 RMK A01 T00330019  RH  090%=      5-min Rain = 0
KME1 180513Z 19005KT 04/02 A3012 RMK A01 T00360021  RH  090%=      5-min Rain = 0
KME1 180514Z 18004KT 04/02 A3012 RMK A01 T00380023  RH  090%=      5-min Rain = 0
KME1 180515Z 19003KT 04/02 A3012 RMK A01 T00400022  RH  089%=      5-min Rain = 0
KME1 180516Z 20003KT 04/02 A3012 RMK A01 T00400021  RH  088%=      5-min Rain = 0
KME1 180517Z 20004KT 04/02 A3012 RMK A01 T00400020  RH  087%=      5-min Rain = 0
KME1 180518Z 20004KT 04/02 A3013 RMK A01 T00400019  RH  087%=      5-min Rain = 0
KME1 180519Z 20004KT 04/02 A3013 RMK A01 T00390019  RH  087%=      5-min Rain = 0
KME1 180520Z 21004KT 04/02 A3013 RMK A01 T00380019  RH  087%=      5-min Rain = 0
KME1 180521Z 21004KT 04/02 A3013 RMK A01 T00370018  RH  087%=      5-min Rain = 0
KME1 180522Z 21004KT 04/02 A3013 RMK A01 T00360018  RH  088%=      5-min Rain = 0
KME1 180523Z 22004KT 04/02 A3013 RMK A01 T00360018  RH  088%=      5-min Rain = 0
KME1 180524Z 23004KT 04/02 A3012 RMK A01 T00360019  RH  089%=      5-min Rain = 0
KME1 180525Z 25004KT 04/02 A3012 RMK A01 T00360020  RH  089%=      5-min Rain = 0
KME1 180526Z 25004KT 04/02 A3012 RMK A01 T00360021  RH  090%=      5-min Rain = 0
KME1 180527Z 26003KT 04/02 A3012 RMK A01 T00370021  RH  089%=      5-min Rain = 0
KME1 180528Z 27003KT 04/02 A3012 RMK A01 T00370020  RH  089%=      5-min Rain = 0
KME1 180529Z 33002KT 04/02 A3012 RMK A01 T00370020  RH  089%=      5-min Rain = 0
KME1 180530Z 33002KT 04/02 A3012 RMK A01 T00350017  RH  088%=      5-min Rain = 0
KME1 180531Z 33002KT 03/02 A3012 RMK A01 T00330015  RH  088%=      5-min Rain = 0
KME1 180532Z 31001KT 03/02 A3012 RMK A01 T00330016  RH  089%=      5-min Rain = 0
KME1 180533Z 31001KT 03/02 A3012 RMK A01 T00320017  RH  089%=      5-min Rain = 0
KME1 180534Z 30000KT 03/02 A3012 RMK A01 T00320016  RH  089%=      5-min Rain = 0
KME1 180535Z 16001KT 03/02 A3012 RMK A01 T00310016  RH  089%=      5-min Rain = 0
KME1 180536Z 14003KT 03/02 A3012 RMK A01 T00310016  RH  090%=      5-min Rain = 0
KME1 180537Z 14003KT 03/02 A3012 RMK A01 T00300015  RH  090%=      5-min Rain = 0
KME1 180538Z 14001KT 03/01 A3012 RMK A01 T00280011  RH  089%=      5-min Rain = 0
KME1 180539Z 14000KT 03/01 A3012 RMK A01 T00280014  RH  091%=      5-min Rain = 0
KME1 180540Z 00000KT 03/02 A3012 RMK A01 T00290018  RH  092%=      5-min Rain = 0
KME1 180541Z 00000KT 03/02 A3012 RMK A01 T00300018  RH  092%=      5-min Rain = 0
KME1 180542Z 00000KT 03/02 A3012 RMK A01 T00300016  RH  090%=      5-min Rain = 0
KME1 180543Z 00000KT 03/01 A3012 RMK A01 T00290014  RH  090%=      5-min Rain = 0
KME1 180544Z 21001KT 03/01 A3012 RMK A01 T00290014  RH  090%=      5-min Rain = 0
KME1 180545Z 20002KT 03/02 A3012 RMK A01 T00290016  RH  092%=      5-min Rain = 0
KME1 180546Z 19002KT 03/02 A3012 RMK A01 T00300016  RH  091%=      5-min Rain = 0
KME1 180547Z 18003KT 03/02 A3012 RMK A01 T00290015  RH  090%=      5-min Rain = 0
KME1 180548Z 18003KT 03/01 A3011 RMK A01 T00290014  RH  090%=      5-min Rain = 0
KME1 180549Z 18003KT 03/02 A3011 RMK A01 T00280015  RH  091%=      5-min Rain = 0
KME1 180550Z 19003KT 03/02 A3011 RMK A01 T00280017  RH  092%=      5-min Rain = 0
KME1 180551Z 20002KT 03/02 A3012 RMK A01 T00300020  RH  094%=      5-min Rain = 0
KME1 180552Z 21002KT 03/02 A3011 RMK A01 T00310020  RH  092%=      5-min Rain = 0
KME1 180553Z 21002KT 03/02 A3011 RMK A01 T00320019  RH  091%=      5-min Rain = 0
KME1 180554Z 20002KT 03/02 A3011 RMK A01 T00320018  RH  090%=      5-min Rain = 0
KME1 180555Z 20002KT 03/02 A3011 RMK A01 T00320017  RH  090%=      5-min Rain = 0
KME1 180556Z 21002KT 03/02 A3011 RMK A01 T00310016  RH  090%=      5-min Rain = 0
KME1 180557Z 22003KT 03/02 A3011 RMK A01 T00300015  RH  090%=      5-min Rain = 0
KME1 180558Z 21003KT 03/01 A3011 RMK A01 T00290014  RH  090%=      5-min Rain = 0
KME1 180559Z 20004KT 03/02 A3011 RMK A01 T00280015  RH  091%=      5-min Rain = 0

Page generated in 0.1402 seconds.